﻿<?xml version="1.0" encoding="UTF-8"?>
<gpx xmlns="http://www.topografix.com/GPX/1/1" creator="ape@map" version="1.1" xmlns:xsi="http://www.w3.org/2001/XMLSchema-instance" xmlns:dklgpx="http://na.na.na/GPX/1/1" xsi:schemaLocation="http://www.topografix.com/GPX/1/1 http://www.topografix.com/GPX/1/1/gpx.xsd">
<metadata>
   <name>ape@map my Phone my Guide</name>
</metadata>
<trk>
   <name>Meilsertrail</name>
   <trkseg>
      <trkpt lon="11.218372345" lat="47.2287483215">
          <ele>1126</ele>
          <time>2026-05-03T08:26:20Z</time>
      </trkpt>
      <trkpt lon="11.2181777954" lat="47.2287940979">
          <ele>1126</ele>
          <time>2026-05-03T08:26:31Z</time>
      </trkpt>
      <trkpt lon="11.2179946899" lat="47.2288169861">
          <ele>1126</ele>
          <time>2026-05-03T08:26:32Z</time>
      </trkpt>
      <trkpt lon="11.2178907394" lat="47.2288398743">
          <ele>1118</ele>
          <time>2026-05-03T08:26:36Z</time>
      </trkpt>
      <trkpt lon="11.2177019119" lat="47.2288322449">
          <ele>1116</ele>
          <time>2026-05-03T08:27:26Z</time>
      </trkpt>
      <trkpt lon="11.217549324" lat="47.2288742065">
          <ele>1116</ele>
          <time>2026-05-03T08:27:30Z</time>
      </trkpt>
      <trkpt lon="11.2173900604" lat="47.228931427">
          <ele>1116</ele>
          <time>2026-05-03T08:27:34Z</time>
      </trkpt>
      <trkpt lon="11.2172880173" lat="47.2290077209">
          <ele>1117</ele>
          <time>2026-05-03T08:27:37Z</time>
      </trkpt>
      <trkpt lon="11.2171773911" lat="47.2290763855">
          <ele>1116</ele>
          <time>2026-05-03T08:27:41Z</time>
      </trkpt>
      <trkpt lon="11.217040062" lat="47.2291221619">
          <ele>1116</ele>
          <time>2026-05-03T08:27:47Z</time>
      </trkpt>
      <trkpt lon="11.2168941498" lat="47.2291526794">
          <ele>1117</ele>
          <time>2026-05-03T08:27:53Z</time>
      </trkpt>
      <trkpt lon="11.2167472839" lat="47.2291679382">
          <ele>1117</ele>
          <time>2026-05-03T08:27:58Z</time>
      </trkpt>
      <trkpt lon="11.2165908813" lat="47.2291717529">
          <ele>1119</ele>
          <time>2026-05-03T08:28:05Z</time>
      </trkpt>
      <trkpt lon="11.2166442871" lat="47.2290687561">
          <ele>1120</ele>
          <time>2026-05-03T08:28:12Z</time>
      </trkpt>
      <trkpt lon="11.216791153" lat="47.229019165">
          <ele>1123</ele>
          <time>2026-05-03T08:28:19Z</time>
      </trkpt>
      <trkpt lon="11.2169189453" lat="47.2289505005">
          <ele>1125</ele>
          <time>2026-05-03T08:28:26Z</time>
      </trkpt>
      <trkpt lon="11.2170009613" lat="47.2288665771">
          <ele>1126</ele>
          <time>2026-05-03T08:28:31Z</time>
      </trkpt>
      <trkpt lon="11.2170677185" lat="47.2287750244">
          <ele>1128</ele>
          <time>2026-05-03T08:28:37Z</time>
      </trkpt>
      <trkpt lon="11.2171440125" lat="47.2286911011">
          <ele>1130</ele>
          <time>2026-05-03T08:28:42Z</time>
      </trkpt>
      <trkpt lon="11.2172718048" lat="47.2286338806">
          <ele>1132</ele>
          <time>2026-05-03T08:28:49Z</time>
      </trkpt>
      <trkpt lon="11.2174167633" lat="47.2285881042">
          <ele>1133</ele>
          <time>2026-05-03T08:28:55Z</time>
      </trkpt>
      <trkpt lon="11.2175359726" lat="47.2285118103">
          <ele>1135</ele>
          <time>2026-05-03T08:29:01Z</time>
      </trkpt>
      <trkpt lon="11.2176551819" lat="47.2284545898">
          <ele>1138</ele>
          <time>2026-05-03T08:29:06Z</time>
      </trkpt>
      <trkpt lon="11.2177934647" lat="47.2284088135">
          <ele>1141</ele>
          <time>2026-05-03T08:29:12Z</time>
      </trkpt>
      <trkpt lon="11.2179317474" lat="47.2283363342">
          <ele>1144</ele>
          <time>2026-05-03T08:29:18Z</time>
      </trkpt>
      <trkpt lon="11.2180328369" lat="47.2282676697">
          <ele>1147</ele>
          <time>2026-05-03T08:29:24Z</time>
      </trkpt>
      <trkpt lon="11.2181072235" lat="47.2281723022">
          <ele>1151</ele>
          <time>2026-05-03T08:29:29Z</time>
      </trkpt>
      <trkpt lon="11.2181682587" lat="47.2280693054">
          <ele>1156</ele>
          <time>2026-05-03T08:29:34Z</time>
      </trkpt>
      <trkpt lon="11.2181539536" lat="47.2279624939">
          <ele>1161</ele>
          <time>2026-05-03T08:29:40Z</time>
      </trkpt>
      <trkpt lon="11.2180833817" lat="47.2278709412">
          <ele>1161</ele>
          <time>2026-05-03T08:29:45Z</time>
      </trkpt>
      <trkpt lon="11.2179822922" lat="47.2277870178">
          <ele>1161</ele>
          <time>2026-05-03T08:29:51Z</time>
      </trkpt>
      <trkpt lon="11.2179260254" lat="47.2276916504">
          <ele>1160</ele>
          <time>2026-05-03T08:29:56Z</time>
      </trkpt>
      <trkpt lon="11.2178812027" lat="47.2275886536">
          <ele>1158</ele>
          <time>2026-05-03T08:30:03Z</time>
      </trkpt>
      <trkpt lon="11.2177381516" lat="47.2275772095">
          <ele>1160</ele>
          <time>2026-05-03T08:30:12Z</time>
      </trkpt>
      <trkpt lon="11.2176733017" lat="47.2276725769">
          <ele>1162</ele>
          <time>2026-05-03T08:30:18Z</time>
      </trkpt>
      <trkpt lon="11.2175626755" lat="47.2277488708">
          <ele>1164</ele>
          <time>2026-05-03T08:30:51Z</time>
      </trkpt>
      <trkpt lon="11.2174406052" lat="47.2278137207">
          <ele>1164</ele>
          <time>2026-05-03T08:30:57Z</time>
      </trkpt>
      <trkpt lon="11.2172937393" lat="47.2278289795">
          <ele>1164</ele>
          <time>2026-05-03T08:31:03Z</time>
      </trkpt>
      <trkpt lon="11.2171401978" lat="47.2278442383">
          <ele>1164</ele>
          <time>2026-05-03T08:31:09Z</time>
      </trkpt>
      <trkpt lon="11.2169828415" lat="47.2278404236">
          <ele>1166</ele>
          <time>2026-05-03T08:31:15Z</time>
      </trkpt>
      <trkpt lon="11.2168359756" lat="47.2278633118">
          <ele>1167</ele>
          <time>2026-05-03T08:31:21Z</time>
      </trkpt>
      <trkpt lon="11.2166948318" lat="47.2278862">
          <ele>1169</ele>
          <time>2026-05-03T08:31:27Z</time>
      </trkpt>
      <trkpt lon="11.2165327072" lat="47.2278938293">
          <ele>1169</ele>
          <time>2026-05-03T08:31:34Z</time>
      </trkpt>
      <trkpt lon="11.2163906097" lat="47.2279090881">
          <ele>1172</ele>
          <time>2026-05-03T08:31:41Z</time>
      </trkpt>
      <trkpt lon="11.2162399292" lat="47.2279434204">
          <ele>1175</ele>
          <time>2026-05-03T08:31:48Z</time>
      </trkpt>
      <trkpt lon="11.2160844803" lat="47.227973938">
          <ele>1178</ele>
          <time>2026-05-03T08:31:55Z</time>
      </trkpt>
      <trkpt lon="11.2159528732" lat="47.2279319763">
          <ele>1181</ele>
          <time>2026-05-03T08:32:01Z</time>
      </trkpt>
      <trkpt lon="11.2158460617" lat="47.2278671265">
          <ele>1183</ele>
          <time>2026-05-03T08:32:06Z</time>
      </trkpt>
      <trkpt lon="11.2157020569" lat="47.2278137207">
          <ele>1185</ele>
          <time>2026-05-03T08:32:12Z</time>
      </trkpt>
      <trkpt lon="11.2155504227" lat="47.2277603149">
          <ele>1187</ele>
          <time>2026-05-03T08:32:19Z</time>
      </trkpt>
      <trkpt lon="11.2153940201" lat="47.2277679443">
          <ele>1188</ele>
          <time>2026-05-03T08:32:25Z</time>
      </trkpt>
      <trkpt lon="11.2152919769" lat="47.2278404236">
          <ele>1190</ele>
          <time>2026-05-03T08:32:32Z</time>
      </trkpt>
      <trkpt lon="11.2152023315" lat="47.2279205322">
          <ele>1190</ele>
          <time>2026-05-03T08:32:39Z</time>
      </trkpt>
      <trkpt lon="11.2150802612" lat="47.2279968262">
          <ele>1190</ele>
          <time>2026-05-03T08:32:46Z</time>
      </trkpt>
      <trkpt lon="11.2149429321" lat="47.2279968262">
          <ele>1194</ele>
          <time>2026-05-03T08:32:53Z</time>
      </trkpt>
      <trkpt lon="11.2147874832" lat="47.2279815674">
          <ele>1198</ele>
          <time>2026-05-03T08:33:00Z</time>
      </trkpt>
      <trkpt lon="11.2146425247" lat="47.2279586792">
          <ele>1201</ele>
          <time>2026-05-03T08:33:06Z</time>
      </trkpt>
      <trkpt lon="11.2144956589" lat="47.227935791">
          <ele>1202</ele>
          <time>2026-05-03T08:33:13Z</time>
      </trkpt>
      <trkpt lon="11.2143497467" lat="47.2279014587">
          <ele>1205</ele>
          <time>2026-05-03T08:33:20Z</time>
      </trkpt>
      <trkpt lon="11.2142057419" lat="47.2278556824">
          <ele>1207</ele>
          <time>2026-05-03T08:33:27Z</time>
      </trkpt>
      <trkpt lon="11.2140626907" lat="47.2278366089">
          <ele>1209</ele>
          <time>2026-05-03T08:33:34Z</time>
      </trkpt>
      <trkpt lon="11.2139081955" lat="47.2278709412">
          <ele>1211</ele>
          <time>2026-05-03T08:33:41Z</time>
      </trkpt>
      <trkpt lon="11.2137641907" lat="47.2279243469">
          <ele>1211</ele>
          <time>2026-05-03T08:33:48Z</time>
      </trkpt>
      <trkpt lon="11.2136287689" lat="47.2279815674">
          <ele>1210</ele>
          <time>2026-05-03T08:33:54Z</time>
      </trkpt>
      <trkpt lon="11.2134971619" lat="47.2280273438">
          <ele>1210</ele>
          <time>2026-05-03T08:34:01Z</time>
      </trkpt>
      <trkpt lon="11.2134017944" lat="47.2281036377">
          <ele>1207</ele>
          <time>2026-05-03T08:34:07Z</time>
      </trkpt>
      <trkpt lon="11.2132902145" lat="47.2281837463">
          <ele>1204</ele>
          <time>2026-05-03T08:34:13Z</time>
      </trkpt>
      <trkpt lon="11.2131586075" lat="47.2282333374">
          <ele>1207</ele>
          <time>2026-05-03T08:34:20Z</time>
      </trkpt>
      <trkpt lon="11.2130060196" lat="47.2282752991">
          <ele>1210</ele>
          <time>2026-05-03T08:34:27Z</time>
      </trkpt>
      <trkpt lon="11.2128648758" lat="47.228313446">
          <ele>1210</ele>
          <time>2026-05-03T08:34:33Z</time>
      </trkpt>
      <trkpt lon="11.212729454" lat="47.228351593">
          <ele>1211</ele>
          <time>2026-05-03T08:34:40Z</time>
      </trkpt>
      <trkpt lon="11.2125911713" lat="47.2283859253">
          <ele>1213</ele>
          <time>2026-05-03T08:34:46Z</time>
      </trkpt>
      <trkpt lon="11.2124557495" lat="47.2284355164">
          <ele>1215</ele>
          <time>2026-05-03T08:34:52Z</time>
      </trkpt>
      <trkpt lon="11.2123022079" lat="47.2284393311">
          <ele>1219</ele>
          <time>2026-05-03T08:34:59Z</time>
      </trkpt>
      <trkpt lon="11.2121610641" lat="47.2284355164">
          <ele>1222</ele>
          <time>2026-05-03T08:35:05Z</time>
      </trkpt>
      <trkpt lon="11.2119970322" lat="47.2284393311">
          <ele>1225</ele>
          <time>2026-05-03T08:35:12Z</time>
      </trkpt>
      <trkpt lon="11.2118597031" lat="47.2284469604">
          <ele>1231</ele>
          <time>2026-05-03T08:35:30Z</time>
      </trkpt>
      <trkpt lon="11.2117185593" lat="47.2284927368">
          <ele>1232</ele>
          <time>2026-05-03T08:35:36Z</time>
      </trkpt>
      <trkpt lon="11.2115850449" lat="47.2285385132">
          <ele>1233</ele>
          <time>2026-05-03T08:35:42Z</time>
      </trkpt>
      <trkpt lon="11.2114429474" lat="47.2285728455">
          <ele>1234</ele>
          <time>2026-05-03T08:35:49Z</time>
      </trkpt>
      <trkpt lon="11.2113018036" lat="47.2286148071">
          <ele>1237</ele>
          <time>2026-05-03T08:35:56Z</time>
      </trkpt>
      <trkpt lon="11.2111625671" lat="47.2286682129">
          <ele>1237</ele>
          <time>2026-05-03T08:36:03Z</time>
      </trkpt>
      <trkpt lon="11.2110204697" lat="47.2287063599">
          <ele>1237</ele>
          <time>2026-05-03T08:36:10Z</time>
      </trkpt>
      <trkpt lon="11.2108621597" lat="47.2287406921">
          <ele>1236</ele>
          <time>2026-05-03T08:36:17Z</time>
      </trkpt>
      <trkpt lon="11.2107200623" lat="47.2287712097">
          <ele>1236</ele>
          <time>2026-05-03T08:36:23Z</time>
      </trkpt>
      <trkpt lon="11.2105789185" lat="47.2288131714">
          <ele>1237</ele>
          <time>2026-05-03T08:36:29Z</time>
      </trkpt>
      <trkpt lon="11.2104349136" lat="47.2288513184">
          <ele>1239</ele>
          <time>2026-05-03T08:36:35Z</time>
      </trkpt>
      <trkpt lon="11.2103013992" lat="47.2288818359">
          <ele>1242</ele>
          <time>2026-05-03T08:36:41Z</time>
      </trkpt>
      <trkpt lon="11.2101593018" lat="47.2289161682">
          <ele>1246</ele>
          <time>2026-05-03T08:36:47Z</time>
      </trkpt>
      <trkpt lon="11.2100133896" lat="47.2289466858">
          <ele>1249</ele>
          <time>2026-05-03T08:36:53Z</time>
      </trkpt>
      <trkpt lon="11.2098560333" lat="47.2289924622">
          <ele>1249</ele>
          <time>2026-05-03T08:37:00Z</time>
      </trkpt>
      <trkpt lon="11.2097139359" lat="47.2290267944">
          <ele>1250</ele>
          <time>2026-05-03T08:37:05Z</time>
      </trkpt>
      <trkpt lon="11.2095708847" lat="47.2290840149">
          <ele>1252</ele>
          <time>2026-05-03T08:37:12Z</time>
      </trkpt>
      <trkpt lon="11.209438324" lat="47.2291297913">
          <ele>1253</ele>
          <time>2026-05-03T08:37:18Z</time>
      </trkpt>
      <trkpt lon="11.2093019485" lat="47.2291679382">
          <ele>1256</ele>
          <time>2026-05-03T08:37:24Z</time>
      </trkpt>
      <trkpt lon="11.2091636658" lat="47.229221344">
          <ele>1259</ele>
          <time>2026-05-03T08:37:30Z</time>
      </trkpt>
      <trkpt lon="11.2090206146" lat="47.229259491">
          <ele>1261</ele>
          <time>2026-05-03T08:37:36Z</time>
      </trkpt>
      <trkpt lon="11.2088785172" lat="47.2293243408">
          <ele>1260</ele>
          <time>2026-05-03T08:37:42Z</time>
      </trkpt>
      <trkpt lon="11.2088651657" lat="47.229221344">
          <ele>1257</ele>
          <time>2026-05-03T08:37:56Z</time>
      </trkpt>
      <trkpt lon="11.2089653015" lat="47.22914505">
          <ele>1260</ele>
          <time>2026-05-03T08:38:01Z</time>
      </trkpt>
      <trkpt lon="11.2090330124" lat="47.229057312">
          <ele>1263</ele>
          <time>2026-05-03T08:38:06Z</time>
      </trkpt>
      <trkpt lon="11.2091293335" lat="47.2289733887">
          <ele>1266</ele>
          <time>2026-05-03T08:38:12Z</time>
      </trkpt>
      <trkpt lon="11.2092237473" lat="47.2288780212">
          <ele>1269</ele>
          <time>2026-05-03T08:38:18Z</time>
      </trkpt>
      <trkpt lon="11.2092962265" lat="47.2287902832">
          <ele>1271</ele>
          <time>2026-05-03T08:38:23Z</time>
      </trkpt>
      <trkpt lon="11.2093811035" lat="47.2286949158">
          <ele>1274</ele>
          <time>2026-05-03T08:38:29Z</time>
      </trkpt>
      <trkpt lon="11.2094545364" lat="47.2286071777">
          <ele>1277</ele>
          <time>2026-05-03T08:38:35Z</time>
      </trkpt>
      <trkpt lon="11.2095327377" lat="47.2285194397">
          <ele>1280</ele>
          <time>2026-05-03T08:38:42Z</time>
      </trkpt>
      <trkpt lon="11.2096395493" lat="47.2284355164">
          <ele>1283</ele>
          <time>2026-05-03T08:38:49Z</time>
      </trkpt>
      <trkpt lon="11.2097473145" lat="47.228351593">
          <ele>1285</ele>
          <time>2026-05-03T08:38:55Z</time>
      </trkpt>
      <trkpt lon="11.2098312378" lat="47.2282562256">
          <ele>1286</ele>
          <time>2026-05-03T08:39:01Z</time>
      </trkpt>
      <trkpt lon="11.2099227905" lat="47.2281608582">
          <ele>1287</ele>
          <time>2026-05-03T08:39:07Z</time>
      </trkpt>
      <trkpt lon="11.2099895477" lat="47.2280693054">
          <ele>1288</ele>
          <time>2026-05-03T08:39:13Z</time>
      </trkpt>
      <trkpt lon="11.2100534439" lat="47.227973938">
          <ele>1289</ele>
          <time>2026-05-03T08:39:20Z</time>
      </trkpt>
      <trkpt lon="11.2101678848" lat="47.227897644">
          <ele>1290</ele>
          <time>2026-05-03T08:39:27Z</time>
      </trkpt>
      <trkpt lon="11.2102813721" lat="47.2278137207">
          <ele>1291</ele>
          <time>2026-05-03T08:39:34Z</time>
      </trkpt>
      <trkpt lon="11.2103786469" lat="47.2277336121">
          <ele>1292</ele>
          <time>2026-05-03T08:39:39Z</time>
      </trkpt>
      <trkpt lon="11.2104816437" lat="47.2276649475">
          <ele>1295</ele>
          <time>2026-05-03T08:39:44Z</time>
      </trkpt>
      <trkpt lon="11.210562706" lat="47.2275695801">
          <ele>1297</ele>
          <time>2026-05-03T08:39:50Z</time>
      </trkpt>
      <trkpt lon="11.210682869" lat="47.2275009155">
          <ele>1299</ele>
          <time>2026-05-03T08:39:57Z</time>
      </trkpt>
      <trkpt lon="11.2107667923" lat="47.2274093628">
          <ele>1301</ele>
          <time>2026-05-03T08:40:04Z</time>
      </trkpt>
      <trkpt lon="11.2108507156" lat="47.2273101807">
          <ele>1304</ele>
          <time>2026-05-03T08:40:12Z</time>
      </trkpt>
      <trkpt lon="11.2109498978" lat="47.2272377014">
          <ele>1306</ele>
          <time>2026-05-03T08:40:18Z</time>
      </trkpt>
      <trkpt lon="11.2110767365" lat="47.227180481">
          <ele>1308</ele>
          <time>2026-05-03T08:40:24Z</time>
      </trkpt>
      <trkpt lon="11.2112026215" lat="47.227104187">
          <ele>1309</ele>
          <time>2026-05-03T08:40:30Z</time>
      </trkpt>
      <trkpt lon="11.2112798691" lat="47.2270050049">
          <ele>1311</ele>
          <time>2026-05-03T08:40:38Z</time>
      </trkpt>
      <trkpt lon="11.2113409042" lat="47.2269058228">
          <ele>1315</ele>
          <time>2026-05-03T08:40:46Z</time>
      </trkpt>
      <trkpt lon="11.2114229202" lat="47.2268218994">
          <ele>1316</ele>
          <time>2026-05-03T08:40:52Z</time>
      </trkpt>
      <trkpt lon="11.2115125656" lat="47.2267303467">
          <ele>1319</ele>
          <time>2026-05-03T08:40:59Z</time>
      </trkpt>
      <trkpt lon="11.2116470337" lat="47.2266578674">
          <ele>1321</ele>
          <time>2026-05-03T08:41:06Z</time>
      </trkpt>
      <trkpt lon="11.2117605209" lat="47.2265815735">
          <ele>1325</ele>
          <time>2026-05-03T08:41:13Z</time>
      </trkpt>
      <trkpt lon="11.2118701935" lat="47.2264976501">
          <ele>1326</ele>
          <time>2026-05-03T08:41:20Z</time>
      </trkpt>
      <trkpt lon="11.2119569778" lat="47.2264175415">
          <ele>1325</ele>
          <time>2026-05-03T08:41:26Z</time>
      </trkpt>
      <trkpt lon="11.2120580673" lat="47.2263450623">
          <ele>1326</ele>
          <time>2026-05-03T08:41:32Z</time>
      </trkpt>
      <trkpt lon="11.2121753693" lat="47.2262649536">
          <ele>1328</ele>
          <time>2026-05-03T08:41:39Z</time>
      </trkpt>
      <trkpt lon="11.2122945786" lat="47.2261924744">
          <ele>1330</ele>
          <time>2026-05-03T08:41:45Z</time>
      </trkpt>
      <trkpt lon="11.212395668" lat="47.2261123657">
          <ele>1332</ele>
          <time>2026-05-03T08:41:52Z</time>
      </trkpt>
      <trkpt lon="11.2124853134" lat="47.226020813">
          <ele>1333</ele>
          <time>2026-05-03T08:42:00Z</time>
      </trkpt>
      <trkpt lon="11.2125720978" lat="47.225933075">
          <ele>1334</ele>
          <time>2026-05-03T08:42:07Z</time>
      </trkpt>
      <trkpt lon="11.2126960754" lat="47.2258682251">
          <ele>1336</ele>
          <time>2026-05-03T08:42:14Z</time>
      </trkpt>
      <trkpt lon="11.2127723694" lat="47.2257766724">
          <ele>1337</ele>
          <time>2026-05-03T08:42:20Z</time>
      </trkpt>
      <trkpt lon="11.2129116058" lat="47.225730896">
          <ele>1338</ele>
          <time>2026-05-03T08:42:27Z</time>
      </trkpt>
      <trkpt lon="11.2129936218" lat="47.2256393433">
          <ele>1341</ele>
          <time>2026-05-03T08:42:34Z</time>
      </trkpt>
      <trkpt lon="11.2131376266" lat="47.2255821228">
          <ele>1344</ele>
          <time>2026-05-03T08:42:41Z</time>
      </trkpt>
      <trkpt lon="11.2132606506" lat="47.2255134583">
          <ele>1347</ele>
          <time>2026-05-03T08:42:47Z</time>
      </trkpt>
      <trkpt lon="11.2133817673" lat="47.2254447937">
          <ele>1350</ele>
          <time>2026-05-03T08:42:54Z</time>
      </trkpt>
      <trkpt lon="11.2135057449" lat="47.2253761292">
          <ele>1351</ele>
          <time>2026-05-03T08:43:01Z</time>
      </trkpt>
      <trkpt lon="11.2136096954" lat="47.2252998352">
          <ele>1353</ele>
          <time>2026-05-03T08:43:08Z</time>
      </trkpt>
      <trkpt lon="11.2137289047" lat="47.2252349854">
          <ele>1356</ele>
          <time>2026-05-03T08:43:16Z</time>
      </trkpt>
      <trkpt lon="11.2138214111" lat="47.225151062">
          <ele>1359</ele>
          <time>2026-05-03T08:43:23Z</time>
      </trkpt>
      <trkpt lon="11.2139368057" lat="47.2250709534">
          <ele>1361</ele>
          <time>2026-05-03T08:43:30Z</time>
      </trkpt>
      <trkpt lon="11.214012146" lat="47.2249832153">
          <ele>1362</ele>
          <time>2026-05-03T08:43:36Z</time>
      </trkpt>
      <trkpt lon="11.2141046524" lat="47.2248954773">
          <ele>1362</ele>
          <time>2026-05-03T08:43:43Z</time>
      </trkpt>
      <trkpt lon="11.2141742706" lat="47.2248001099">
          <ele>1363</ele>
          <time>2026-05-03T08:43:50Z</time>
      </trkpt>
      <trkpt lon="11.2141647339" lat="47.224697113">
          <ele>1368</ele>
          <time>2026-05-03T08:43:57Z</time>
      </trkpt>
      <trkpt lon="11.2141180038" lat="47.2246055603">
          <ele>1371</ele>
          <time>2026-05-03T08:44:03Z</time>
      </trkpt>
      <trkpt lon="11.2140417099" lat="47.2245140076">
          <ele>1376</ele>
          <time>2026-05-03T08:44:12Z</time>
      </trkpt>
      <trkpt lon="11.2139625549" lat="47.2244224548">
          <ele>1378</ele>
          <time>2026-05-03T08:44:19Z</time>
      </trkpt>
      <trkpt lon="11.2138795853" lat="47.2243385315">
          <ele>1380</ele>
          <time>2026-05-03T08:44:26Z</time>
      </trkpt>
      <trkpt lon="11.2137908936" lat="47.2242469788">
          <ele>1382</ele>
          <time>2026-05-03T08:44:34Z</time>
      </trkpt>
      <trkpt lon="11.213719368" lat="47.2241477966">
          <ele>1383</ele>
          <time>2026-05-03T08:44:41Z</time>
      </trkpt>
      <trkpt lon="11.2136440277" lat="47.2240486145">
          <ele>1385</ele>
          <time>2026-05-03T08:44:48Z</time>
      </trkpt>
      <trkpt lon="11.2135696411" lat="47.2239608765">
          <ele>1386</ele>
          <time>2026-05-03T08:44:54Z</time>
      </trkpt>
      <trkpt lon="11.2135105133" lat="47.223865509">
          <ele>1387</ele>
          <time>2026-05-03T08:45:02Z</time>
      </trkpt>
      <trkpt lon="11.2134075165" lat="47.2237815857">
          <ele>1389</ele>
          <time>2026-05-03T08:45:09Z</time>
      </trkpt>
      <trkpt lon="11.2133026123" lat="47.2237129211">
          <ele>1390</ele>
          <time>2026-05-03T08:45:40Z</time>
      </trkpt>
      <trkpt lon="11.2132196426" lat="47.2236213684">
          <ele>1391</ele>
          <time>2026-05-03T08:57:43Z</time>
      </trkpt>
      <trkpt lon="11.2131414413" lat="47.2235183716">
          <ele>1391</ele>
          <time>2026-05-03T08:57:48Z</time>
      </trkpt>
      <trkpt lon="11.2130699158" lat="47.2234268188">
          <ele>1393</ele>
          <time>2026-05-03T08:57:52Z</time>
      </trkpt>
      <trkpt lon="11.2129554749" lat="47.223361969">
          <ele>1395</ele>
          <time>2026-05-03T08:57:56Z</time>
      </trkpt>
      <trkpt lon="11.212843895" lat="47.223285675">
          <ele>1396</ele>
          <time>2026-05-03T08:58:00Z</time>
      </trkpt>
      <trkpt lon="11.2127399445" lat="47.2232017517">
          <ele>1396</ele>
          <time>2026-05-03T08:58:05Z</time>
      </trkpt>
      <trkpt lon="11.2126169205" lat="47.2231178284">
          <ele>1397</ele>
          <time>2026-05-03T08:58:10Z</time>
      </trkpt>
      <trkpt lon="11.2124938965" lat="47.2230415344">
          <ele>1397</ele>
          <time>2026-05-03T08:58:15Z</time>
      </trkpt>
      <trkpt lon="11.2123680115" lat="47.2229804993">
          <ele>1397</ele>
          <time>2026-05-03T08:58:20Z</time>
      </trkpt>
      <trkpt lon="11.2122430801" lat="47.2229194641">
          <ele>1398</ele>
          <time>2026-05-03T08:58:25Z</time>
      </trkpt>
      <trkpt lon="11.2121200562" lat="47.222858429">
          <ele>1399</ele>
          <time>2026-05-03T08:58:30Z</time>
      </trkpt>
      <trkpt lon="11.2119951248" lat="47.2227973938">
          <ele>1401</ele>
          <time>2026-05-03T08:58:35Z</time>
      </trkpt>
      <trkpt lon="11.2118549347" lat="47.2227325439">
          <ele>1403</ele>
          <time>2026-05-03T08:58:41Z</time>
      </trkpt>
      <trkpt lon="11.2117137909" lat="47.2226829529">
          <ele>1404</ele>
          <time>2026-05-03T08:58:46Z</time>
      </trkpt>
      <trkpt lon="11.2115697861" lat="47.2226219177">
          <ele>1405</ele>
          <time>2026-05-03T08:58:52Z</time>
      </trkpt>
      <trkpt lon="11.2114295959" lat="47.2225799561">
          <ele>1406</ele>
          <time>2026-05-03T08:58:57Z</time>
      </trkpt>
      <trkpt lon="11.2112779617" lat="47.2225265503">
          <ele>1408</ele>
          <time>2026-05-03T08:59:03Z</time>
      </trkpt>
      <trkpt lon="11.2111272812" lat="47.2224807739">
          <ele>1409</ele>
          <time>2026-05-03T08:59:09Z</time>
      </trkpt>
      <trkpt lon="11.2109889984" lat="47.222442627">
          <ele>1410</ele>
          <time>2026-05-03T08:59:15Z</time>
      </trkpt>
      <trkpt lon="11.2108478546" lat="47.2223968506">
          <ele>1411</ele>
          <time>2026-05-03T08:59:21Z</time>
      </trkpt>
      <trkpt lon="11.2107114792" lat="47.222366333">
          <ele>1413</ele>
          <time>2026-05-03T08:59:26Z</time>
      </trkpt>
      <trkpt lon="11.2105703354" lat="47.2223396301">
          <ele>1414</ele>
          <time>2026-05-03T08:59:31Z</time>
      </trkpt>
      <trkpt lon="11.2104129791" lat="47.2223091125">
          <ele>1415</ele>
          <time>2026-05-03T08:59:37Z</time>
      </trkpt>
      <trkpt lon="11.2102594376" lat="47.2222747803">
          <ele>1416</ele>
          <time>2026-05-03T08:59:43Z</time>
      </trkpt>
      <trkpt lon="11.210108757" lat="47.222240448">
          <ele>1417</ele>
          <time>2026-05-03T08:59:49Z</time>
      </trkpt>
      <trkpt lon="11.2099714279" lat="47.2222061157">
          <ele>1418</ele>
          <time>2026-05-03T08:59:54Z</time>
      </trkpt>
      <trkpt lon="11.2098245621" lat="47.2221794128">
          <ele>1419</ele>
          <time>2026-05-03T09:00:00Z</time>
      </trkpt>
      <trkpt lon="11.2096729279" lat="47.2221412659">
          <ele>1420</ele>
          <time>2026-05-03T09:00:06Z</time>
      </trkpt>
      <trkpt lon="11.2095098495" lat="47.2221069336">
          <ele>1422</ele>
          <time>2026-05-03T09:00:12Z</time>
      </trkpt>
      <trkpt lon="11.209359169" lat="47.2220726013">
          <ele>1424</ele>
          <time>2026-05-03T09:00:18Z</time>
      </trkpt>
      <trkpt lon="11.2092075348" lat="47.2220458984">
          <ele>1426</ele>
          <time>2026-05-03T09:00:24Z</time>
      </trkpt>
      <trkpt lon="11.2090568542" lat="47.2220230103">
          <ele>1427</ele>
          <time>2026-05-03T09:00:30Z</time>
      </trkpt>
      <trkpt lon="11.2089138031" lat="47.2220001221">
          <ele>1428</ele>
          <time>2026-05-03T09:00:36Z</time>
      </trkpt>
      <trkpt lon="11.208773613" lat="47.2219734192">
          <ele>1430</ele>
          <time>2026-05-03T09:00:42Z</time>
      </trkpt>
      <trkpt lon="11.2086133957" lat="47.2219352722">
          <ele>1432</ele>
          <time>2026-05-03T09:00:48Z</time>
      </trkpt>
      <trkpt lon="11.2084732056" lat="47.2218933105">
          <ele>1433</ele>
          <time>2026-05-03T09:00:53Z</time>
      </trkpt>
      <trkpt lon="11.2083301544" lat="47.2218589783">
          <ele>1435</ele>
          <time>2026-05-03T09:00:59Z</time>
      </trkpt>
      <trkpt lon="11.2081718445" lat="47.2218132019">
          <ele>1436</ele>
          <time>2026-05-03T09:01:05Z</time>
      </trkpt>
      <trkpt lon="11.2080154419" lat="47.2217750549">
          <ele>1438</ele>
          <time>2026-05-03T09:01:11Z</time>
      </trkpt>
      <trkpt lon="11.2080535889" lat="47.2218704224">
          <ele>1439</ele>
          <time>2026-05-03T09:01:21Z</time>
      </trkpt>
      <trkpt lon="11.2081871033" lat="47.221912384">
          <ele>1440</ele>
          <time>2026-05-03T09:01:28Z</time>
      </trkpt>
      <trkpt lon="11.208313942" lat="47.2219734192">
          <ele>1443</ele>
          <time>2026-05-03T09:01:34Z</time>
      </trkpt>
      <trkpt lon="11.2084283829" lat="47.2220573425">
          <ele>1445</ele>
          <time>2026-05-03T09:01:40Z</time>
      </trkpt>
      <trkpt lon="11.2085437775" lat="47.2221374512">
          <ele>1446</ele>
          <time>2026-05-03T09:01:46Z</time>
      </trkpt>
      <trkpt lon="11.2086553574" lat="47.2222137451">
          <ele>1448</ele>
          <time>2026-05-03T09:01:52Z</time>
      </trkpt>
      <trkpt lon="11.2087726593" lat="47.2222976685">
          <ele>1448</ele>
          <time>2026-05-03T09:01:58Z</time>
      </trkpt>
      <trkpt lon="11.2088861465" lat="47.222366333">
          <ele>1449</ele>
          <time>2026-05-03T09:02:04Z</time>
      </trkpt>
      <trkpt lon="11.2090015411" lat="47.2224349976">
          <ele>1450</ele>
          <time>2026-05-03T09:02:10Z</time>
      </trkpt>
      <trkpt lon="11.2091302872" lat="47.2225074768">
          <ele>1452</ele>
          <time>2026-05-03T09:02:17Z</time>
      </trkpt>
      <trkpt lon="11.2092466354" lat="47.2225799561">
          <ele>1453</ele>
          <time>2026-05-03T09:02:23Z</time>
      </trkpt>
      <trkpt lon="11.2093677521" lat="47.2226409912">
          <ele>1455</ele>
          <time>2026-05-03T09:02:29Z</time>
      </trkpt>
      <trkpt lon="11.2094926834" lat="47.2227096558">
          <ele>1457</ele>
          <time>2026-05-03T09:02:36Z</time>
      </trkpt>
      <trkpt lon="11.209605217" lat="47.2227859497">
          <ele>1459</ele>
          <time>2026-05-03T09:02:42Z</time>
      </trkpt>
      <trkpt lon="11.2097187042" lat="47.2228736877">
          <ele>1461</ele>
          <time>2026-05-03T09:02:49Z</time>
      </trkpt>
      <trkpt lon="11.2098264694" lat="47.2229652405">
          <ele>1463</ele>
          <time>2026-05-03T09:02:55Z</time>
      </trkpt>
      <trkpt lon="11.2099123001" lat="47.2230529785">
          <ele>1464</ele>
          <time>2026-05-03T09:03:01Z</time>
      </trkpt>
      <trkpt lon="11.2100133896" lat="47.2231407166">
          <ele>1466</ele>
          <time>2026-05-03T09:03:08Z</time>
      </trkpt>
      <trkpt lon="11.2101211548" lat="47.2232170105">
          <ele>1467</ele>
          <time>2026-05-03T09:03:15Z</time>
      </trkpt>
      <trkpt lon="11.2101917267" lat="47.2233123779">
          <ele>1471</ele>
          <time>2026-05-03T09:03:22Z</time>
      </trkpt>
      <trkpt lon="11.2102661133" lat="47.2234115601">
          <ele>1475</ele>
          <time>2026-05-03T09:03:28Z</time>
      </trkpt>
      <trkpt lon="11.2103452682" lat="47.2235031128">
          <ele>1476</ele>
          <time>2026-05-03T09:03:33Z</time>
      </trkpt>
      <trkpt lon="11.2104148865" lat="47.2235984802">
          <ele>1478</ele>
          <time>2026-05-03T09:03:40Z</time>
      </trkpt>
      <trkpt lon="11.2104854584" lat="47.223690033">
          <ele>1480</ele>
          <time>2026-05-03T09:03:45Z</time>
      </trkpt>
      <trkpt lon="11.2105751038" lat="47.2237815857">
          <ele>1480</ele>
          <time>2026-05-03T09:03:51Z</time>
      </trkpt>
      <trkpt lon="11.2106609344" lat="47.2238845825">
          <ele>1481</ele>
          <time>2026-05-03T09:03:57Z</time>
      </trkpt>
      <trkpt lon="11.2107124329" lat="47.223991394">
          <ele>1482</ele>
          <time>2026-05-03T09:04:03Z</time>
      </trkpt>
      <trkpt lon="11.2107524872" lat="47.2240943909">
          <ele>1484</ele>
          <time>2026-05-03T09:04:08Z</time>
      </trkpt>
      <trkpt lon="11.2107543945" lat="47.2241973877">
          <ele>1484</ele>
          <time>2026-05-03T09:04:13Z</time>
      </trkpt>
      <trkpt lon="11.2107210159" lat="47.2243080139">
          <ele>1483</ele>
          <time>2026-05-03T09:04:18Z</time>
      </trkpt>
      <trkpt lon="11.2106790543" lat="47.2244033813">
          <ele>1483</ele>
          <time>2026-05-03T09:04:22Z</time>
      </trkpt>
      <trkpt lon="11.210603714" lat="47.2245140076">
          <ele>1483</ele>
          <time>2026-05-03T09:04:27Z</time>
      </trkpt>
      <trkpt lon="11.2105102539" lat="47.2246170044">
          <ele>1484</ele>
          <time>2026-05-03T09:04:32Z</time>
      </trkpt>
      <trkpt lon="11.2104167938" lat="47.2247047424">
          <ele>1485</ele>
          <time>2026-05-03T09:04:37Z</time>
      </trkpt>
      <trkpt lon="11.2102632523" lat="47.2246780396">
          <ele>1486</ele>
          <time>2026-05-03T09:04:43Z</time>
      </trkpt>
      <trkpt lon="11.2103462219" lat="47.2245941162">
          <ele>1486</ele>
          <time>2026-05-03T09:04:48Z</time>
      </trkpt>
      <trkpt lon="11.2104177475" lat="47.2244949341">
          <ele>1487</ele>
          <time>2026-05-03T09:04:53Z</time>
      </trkpt>
      <trkpt lon="11.2104349136" lat="47.2243919373">
          <ele>1488</ele>
          <time>2026-05-03T09:04:58Z</time>
      </trkpt>
      <trkpt lon="11.2104091644" lat="47.2242774963">
          <ele>1490</ele>
          <time>2026-05-03T09:05:04Z</time>
      </trkpt>
      <trkpt lon="11.2103614807" lat="47.2241821289">
          <ele>1492</ele>
          <time>2026-05-03T09:05:09Z</time>
      </trkpt>
      <trkpt lon="11.2102766037" lat="47.2240943909">
          <ele>1493</ele>
          <time>2026-05-03T09:05:14Z</time>
      </trkpt>
      <trkpt lon="11.2101602554" lat="47.2240257263">
          <ele>1495</ele>
          <time>2026-05-03T09:05:19Z</time>
      </trkpt>
      <trkpt lon="11.210018158" lat="47.2239685059">
          <ele>1497</ele>
          <time>2026-05-03T09:05:25Z</time>
      </trkpt>
      <trkpt lon="11.209859848" lat="47.2239227295">
          <ele>1499</ele>
          <time>2026-05-03T09:05:31Z</time>
      </trkpt>
      <trkpt lon="11.2096996307" lat="47.2238883972">
          <ele>1500</ele>
          <time>2026-05-03T09:05:37Z</time>
      </trkpt>
      <trkpt lon="11.2095527649" lat="47.2238616943">
          <ele>1502</ele>
          <time>2026-05-03T09:05:43Z</time>
      </trkpt>
      <trkpt lon="11.2094097137" lat="47.2238273621">
          <ele>1503</ele>
          <time>2026-05-03T09:05:49Z</time>
      </trkpt>
      <trkpt lon="11.2092618942" lat="47.2237930298">
          <ele>1504</ele>
          <time>2026-05-03T09:05:55Z</time>
      </trkpt>
      <trkpt lon="11.2091035843" lat="47.2237663269">
          <ele>1505</ele>
          <time>2026-05-03T09:06:01Z</time>
      </trkpt>
      <trkpt lon="11.2089586258" lat="47.2237510681">
          <ele>1507</ele>
          <time>2026-05-03T09:06:07Z</time>
      </trkpt>
      <trkpt lon="11.2088060379" lat="47.2237281799">
          <ele>1510</ele>
          <time>2026-05-03T09:06:14Z</time>
      </trkpt>
      <trkpt lon="11.2086439133" lat="47.2237243652">
          <ele>1512</ele>
          <time>2026-05-03T09:06:20Z</time>
      </trkpt>
      <trkpt lon="11.2084970474" lat="47.2237319946">
          <ele>1513</ele>
          <time>2026-05-03T09:06:26Z</time>
      </trkpt>
      <trkpt lon="11.2083396912" lat="47.2237434387">
          <ele>1513</ele>
          <time>2026-05-03T09:06:32Z</time>
      </trkpt>
      <trkpt lon="11.2081985474" lat="47.2237625122">
          <ele>1515</ele>
          <time>2026-05-03T09:06:37Z</time>
      </trkpt>
      <trkpt lon="11.208026886" lat="47.2237625122">
          <ele>1516</ele>
          <time>2026-05-03T09:06:43Z</time>
      </trkpt>
      <trkpt lon="11.2078723907" lat="47.2237548828">
          <ele>1518</ele>
          <time>2026-05-03T09:06:49Z</time>
      </trkpt>
      <trkpt lon="11.2077264786" lat="47.2237167358">
          <ele>1521</ele>
          <time>2026-05-03T09:06:56Z</time>
      </trkpt>
      <trkpt lon="11.2075862885" lat="47.2236785889">
          <ele>1522</ele>
          <time>2026-05-03T09:07:02Z</time>
      </trkpt>
      <trkpt lon="11.2074337006" lat="47.2236442566">
          <ele>1524</ele>
          <time>2026-05-03T09:07:08Z</time>
      </trkpt>
      <trkpt lon="11.2072725296" lat="47.223613739">
          <ele>1525</ele>
          <time>2026-05-03T09:07:15Z</time>
      </trkpt>
      <trkpt lon="11.2071332932" lat="47.2236022949">
          <ele>1528</ele>
          <time>2026-05-03T09:07:21Z</time>
      </trkpt>
      <trkpt lon="11.2069835663" lat="47.2235984802">
          <ele>1529</ele>
          <time>2026-05-03T09:07:27Z</time>
      </trkpt>
      <trkpt lon="11.2068328857" lat="47.2235984802">
          <ele>1530</ele>
          <time>2026-05-03T09:07:33Z</time>
      </trkpt>
      <trkpt lon="11.2066650391" lat="47.2235908508">
          <ele>1531</ele>
          <time>2026-05-03T09:07:40Z</time>
      </trkpt>
      <trkpt lon="11.2065134048" lat="47.2235717773">
          <ele>1532</ele>
          <time>2026-05-03T09:07:46Z</time>
      </trkpt>
      <trkpt lon="11.2063446045" lat="47.2235412598">
          <ele>1533</ele>
          <time>2026-05-03T09:07:52Z</time>
      </trkpt>
      <trkpt lon="11.2061977386" lat="47.2235107422">
          <ele>1535</ele>
          <time>2026-05-03T09:07:57Z</time>
      </trkpt>
      <trkpt lon="11.2060527802" lat="47.2234725952">
          <ele>1536</ele>
          <time>2026-05-03T09:08:02Z</time>
      </trkpt>
      <trkpt lon="11.2059106827" lat="47.223449707">
          <ele>1537</ele>
          <time>2026-05-03T09:08:07Z</time>
      </trkpt>
      <trkpt lon="11.2057552338" lat="47.2234153748">
          <ele>1539</ele>
          <time>2026-05-03T09:08:12Z</time>
      </trkpt>
      <trkpt lon="11.2056093216" lat="47.2233772278">
          <ele>1539</ele>
          <time>2026-05-03T09:08:17Z</time>
      </trkpt>
      <trkpt lon="11.2054634094" lat="47.2233390808">
          <ele>1539</ele>
          <time>2026-05-03T09:08:22Z</time>
      </trkpt>
      <trkpt lon="11.2053146362" lat="47.2233047485">
          <ele>1541</ele>
          <time>2026-05-03T09:08:27Z</time>
      </trkpt>
      <trkpt lon="11.2051467896" lat="47.223274231">
          <ele>1542</ele>
          <time>2026-05-03T09:08:33Z</time>
      </trkpt>
      <trkpt lon="11.2049942017" lat="47.2232475281">
          <ele>1543</ele>
          <time>2026-05-03T09:08:38Z</time>
      </trkpt>
      <trkpt lon="11.2048435211" lat="47.2232093811">
          <ele>1544</ele>
          <time>2026-05-03T09:08:43Z</time>
      </trkpt>
      <trkpt lon="11.2047071457" lat="47.2231636047">
          <ele>1545</ele>
          <time>2026-05-03T09:08:48Z</time>
      </trkpt>
      <trkpt lon="11.2045793533" lat="47.223110199">
          <ele>1546</ele>
          <time>2026-05-03T09:08:53Z</time>
      </trkpt>
      <trkpt lon="11.2044429779" lat="47.223072052">
          <ele>1548</ele>
          <time>2026-05-03T09:08:58Z</time>
      </trkpt>
      <trkpt lon="11.2042922974" lat="47.2230377197">
          <ele>1549</ele>
          <time>2026-05-03T09:09:03Z</time>
      </trkpt>
      <trkpt lon="11.2041416168" lat="47.2230033875">
          <ele>1549</ele>
          <time>2026-05-03T09:09:08Z</time>
      </trkpt>
      <trkpt lon="11.2040128708" lat="47.2229385376">
          <ele>1550</ele>
          <time>2026-05-03T09:09:13Z</time>
      </trkpt>
      <trkpt lon="11.2039251328" lat="47.2228431702">
          <ele>1551</ele>
          <time>2026-05-03T09:09:18Z</time>
      </trkpt>
      <trkpt lon="11.2038736343" lat="47.2229347229">
          <ele>1554</ele>
          <time>2026-05-03T09:09:29Z</time>
      </trkpt>
      <trkpt lon="11.2040023804" lat="47.2230110168">
          <ele>1556</ele>
          <time>2026-05-03T09:09:35Z</time>
      </trkpt>
      <trkpt lon="11.204123497" lat="47.2230758667">
          <ele>1558</ele>
          <time>2026-05-03T09:09:41Z</time>
      </trkpt>
      <trkpt lon="11.204240799" lat="47.2231369019">
          <ele>1560</ele>
          <time>2026-05-03T09:09:47Z</time>
      </trkpt>
      <trkpt lon="11.2043590546" lat="47.2232055664">
          <ele>1561</ele>
          <time>2026-05-03T09:09:53Z</time>
      </trkpt>
      <trkpt lon="11.2044734955" lat="47.2232818604">
          <ele>1563</ele>
          <time>2026-05-03T09:09:59Z</time>
      </trkpt>
      <trkpt lon="11.2045841217" lat="47.2233543396">
          <ele>1565</ele>
          <time>2026-05-03T09:10:05Z</time>
      </trkpt>
      <trkpt lon="11.2046928406" lat="47.2234344482">
          <ele>1566</ele>
          <time>2026-05-03T09:10:11Z</time>
      </trkpt>
      <trkpt lon="11.2048053741" lat="47.2234992981">
          <ele>1568</ele>
          <time>2026-05-03T09:10:17Z</time>
      </trkpt>
      <trkpt lon="11.2049188614" lat="47.223575592">
          <ele>1569</ele>
          <time>2026-05-03T09:10:23Z</time>
      </trkpt>
      <trkpt lon="11.2050437927" lat="47.2236366272">
          <ele>1570</ele>
          <time>2026-05-03T09:10:29Z</time>
      </trkpt>
      <trkpt lon="11.2051534653" lat="47.2237052917">
          <ele>1572</ele>
          <time>2026-05-03T09:10:35Z</time>
      </trkpt>
      <trkpt lon="11.2052907944" lat="47.2237701416">
          <ele>1574</ele>
          <time>2026-05-03T09:10:42Z</time>
      </trkpt>
      <trkpt lon="11.2054004669" lat="47.2238426208">
          <ele>1576</ele>
          <time>2026-05-03T09:10:48Z</time>
      </trkpt>
      <trkpt lon="11.2055072784" lat="47.2239151001">
          <ele>1577</ele>
          <time>2026-05-03T09:10:55Z</time>
      </trkpt>
      <trkpt lon="11.2056045532" lat="47.2239952087">
          <ele>1579</ele>
          <time>2026-05-03T09:11:01Z</time>
      </trkpt>
      <trkpt lon="11.2056980133" lat="47.2240791321">
          <ele>1581</ele>
          <time>2026-05-03T09:11:07Z</time>
      </trkpt>
      <trkpt lon="11.2058000565" lat="47.2241668701">
          <ele>1582</ele>
          <time>2026-05-03T09:11:14Z</time>
      </trkpt>
      <trkpt lon="11.2058887482" lat="47.2242469788">
          <ele>1584</ele>
          <time>2026-05-03T09:11:20Z</time>
      </trkpt>
      <trkpt lon="11.205950737" lat="47.2243385315">
          <ele>1586</ele>
          <time>2026-05-03T09:11:26Z</time>
      </trkpt>
      <trkpt lon="11.2059955597" lat="47.2244377136">
          <ele>1588</ele>
          <time>2026-05-03T09:11:33Z</time>
      </trkpt>
      <trkpt lon="11.2060232162" lat="47.2245407104">
          <ele>1590</ele>
          <time>2026-05-03T09:11:40Z</time>
      </trkpt>
      <trkpt lon="11.2060623169" lat="47.2246360779">
          <ele>1590</ele>
          <time>2026-05-03T09:11:47Z</time>
      </trkpt>
      <trkpt lon="11.2060689926" lat="47.2247428894">
          <ele>1593</ele>
          <time>2026-05-03T09:11:55Z</time>
      </trkpt>
      <trkpt lon="11.2060976028" lat="47.2248535156">
          <ele>1594</ele>
          <time>2026-05-03T09:12:02Z</time>
      </trkpt>
      <trkpt lon="11.2060594559" lat="47.2249565125">
          <ele>1595</ele>
          <time>2026-05-03T09:12:09Z</time>
      </trkpt>
      <trkpt lon="11.205947876" lat="47.2250366211">
          <ele>1595</ele>
          <time>2026-05-03T09:12:17Z</time>
      </trkpt>
      <trkpt lon="11.2058229446" lat="47.2250900269">
          <ele>1595</ele>
          <time>2026-05-03T09:12:24Z</time>
      </trkpt>
      <trkpt lon="11.2056980133" lat="47.2251472473">
          <ele>1595</ele>
          <time>2026-05-03T09:12:31Z</time>
      </trkpt>
      <trkpt lon="11.2055540085" lat="47.2252006531">
          <ele>1596</ele>
          <time>2026-05-03T09:12:39Z</time>
      </trkpt>
      <trkpt lon="11.2053899765" lat="47.2252082825">
          <ele>1598</ele>
          <time>2026-05-03T09:12:47Z</time>
      </trkpt>
      <trkpt lon="11.2052726746" lat="47.2251396179">
          <ele>1601</ele>
          <time>2026-05-03T09:12:55Z</time>
      </trkpt>
      <trkpt lon="11.2053670883" lat="47.2250480652">
          <ele>1602</ele>
          <time>2026-05-03T09:13:02Z</time>
      </trkpt>
      <trkpt lon="11.2054653168" lat="47.2249717712">
          <ele>1605</ele>
          <time>2026-05-03T09:13:08Z</time>
      </trkpt>
      <trkpt lon="11.2054367065" lat="47.2248687744">
          <ele>1606</ele>
          <time>2026-05-03T09:13:14Z</time>
      </trkpt>
      <trkpt lon="11.2054634094" lat="47.2247695923">
          <ele>1606</ele>
          <time>2026-05-03T09:15:14Z</time>
      </trkpt>
      <trkpt lon="11.2053480148" lat="47.2248306274">
          <ele>1605</ele>
          <time>2026-05-03T09:17:45Z</time>
      </trkpt>
      <trkpt lon="11.205201149" lat="47.2248649597">
          <ele>1609</ele>
          <time>2026-05-03T09:18:14Z</time>
      </trkpt>
      <trkpt lon="11.2050561905" lat="47.2248535156">
          <ele>1611</ele>
          <time>2026-05-03T09:18:38Z</time>
      </trkpt>
      <trkpt lon="11.2049074173" lat="47.2248725891">
          <ele>1614</ele>
          <time>2026-05-03T09:19:05Z</time>
      </trkpt>
      <trkpt lon="11.2047491074" lat="47.2248802185">
          <ele>1616</ele>
          <time>2026-05-03T09:19:31Z</time>
      </trkpt>
      <trkpt lon="11.2046003342" lat="47.2248725891">
          <ele>1616</ele>
          <time>2026-05-03T09:19:56Z</time>
      </trkpt>
      <trkpt lon="11.2044525146" lat="47.2248573303">
          <ele>1618</ele>
          <time>2026-05-03T09:20:15Z</time>
      </trkpt>
      <trkpt lon="11.2043123245" lat="47.2247962952">
          <ele>1622</ele>
          <time>2026-05-03T09:20:44Z</time>
      </trkpt>
      <trkpt lon="11.2041635513" lat="47.2248039246">
          <ele>1624</ele>
          <time>2026-05-03T09:21:03Z</time>
      </trkpt>
      <trkpt lon="11.2040205002" lat="47.2247886658">
          <ele>1629</ele>
          <time>2026-05-03T09:21:32Z</time>
      </trkpt>
      <trkpt lon="11.2038736343" lat="47.2247962952">
          <ele>1630</ele>
          <time>2026-05-03T09:21:52Z</time>
      </trkpt>
      <trkpt lon="11.2037210464" lat="47.2247848511">
          <ele>1629</ele>
          <time>2026-05-03T09:22:17Z</time>
      </trkpt>
      <trkpt lon="11.2035484314" lat="47.2247848511">
          <ele>1629</ele>
          <time>2026-05-03T09:22:45Z</time>
      </trkpt>
      <trkpt lon="11.2034273148" lat="47.2247505188">
          <ele>1634</ele>
          <time>2026-05-03T09:23:08Z</time>
      </trkpt>
      <trkpt lon="11.2032747269" lat="47.2247657776">
          <ele>1638</ele>
          <time>2026-05-03T09:23:34Z</time>
      </trkpt>
      <trkpt lon="11.2031297684" lat="47.2247467041">
          <ele>1635</ele>
          <time>2026-05-03T09:23:59Z</time>
      </trkpt>
      <trkpt lon="11.2030076981" lat="47.2247428894">
          <ele>1642</ele>
          <time>2026-05-03T09:24:28Z</time>
      </trkpt>
      <trkpt lon="11.202870369" lat="47.2246932983">
          <ele>1646</ele>
          <time>2026-05-03T09:25:01Z</time>
      </trkpt>
      <trkpt lon="11.2027387619" lat="47.2247047424">
          <ele>1652</ele>
          <time>2026-05-03T09:25:27Z</time>
      </trkpt>
      <trkpt lon="11.2026128769" lat="47.2246894836">
          <ele>1658</ele>
          <time>2026-05-03T09:26:05Z</time>
      </trkpt>
      <trkpt lon="11.2024717331" lat="47.2246551514">
          <ele>1660</ele>
          <time>2026-05-03T09:26:25Z</time>
      </trkpt>
      <trkpt lon="11.2023277283" lat="47.2246589661">
          <ele>1662</ele>
          <time>2026-05-03T09:26:50Z</time>
      </trkpt>
      <trkpt lon="11.2022047043" lat="47.2246208191">
          <ele>1667</ele>
          <time>2026-05-03T09:27:25Z</time>
      </trkpt>
      <trkpt lon="11.2020740509" lat="47.2246322632">
          <ele>1672</ele>
          <time>2026-05-03T09:27:57Z</time>
      </trkpt>
      <trkpt lon="11.2019910812" lat="47.2245559692">
          <ele>1676</ele>
          <time>2026-05-03T09:28:23Z</time>
      </trkpt>
      <trkpt lon="11.2018585205" lat="47.2245788574">
          <ele>1681</ele>
          <time>2026-05-03T09:28:59Z</time>
      </trkpt>
      <trkpt lon="11.20170784" lat="47.224571228">
          <ele>1679</ele>
          <time>2026-05-03T09:29:33Z</time>
      </trkpt>
      <trkpt lon="11.2015724182" lat="47.2245445251">
          <ele>1685</ele>
          <time>2026-05-03T09:30:22Z</time>
      </trkpt>
      <trkpt lon="11.2014436722" lat="47.2245178223">
          <ele>1690</ele>
          <time>2026-05-03T09:31:03Z</time>
      </trkpt>
      <trkpt lon="11.201333046" lat="47.2244567871">
          <ele>1694</ele>
          <time>2026-05-03T09:31:23Z</time>
      </trkpt>
      <trkpt lon="11.2012062073" lat="47.224445343">
          <ele>1700</ele>
          <time>2026-05-03T09:36:12Z</time>
      </trkpt>
      <trkpt lon="11.2010650635" lat="47.2244033813">
          <ele>1701</ele>
          <time>2026-05-03T09:36:40Z</time>
      </trkpt>
      <trkpt lon="11.2009162903" lat="47.2243614197">
          <ele>1706</ele>
          <time>2026-05-03T09:37:16Z</time>
      </trkpt>
      <trkpt lon="11.2007884979" lat="47.224407196">
          <ele>1709</ele>
          <time>2026-05-03T09:37:44Z</time>
      </trkpt>
      <trkpt lon="11.2006502151" lat="47.2243919373">
          <ele>1713</ele>
          <time>2026-05-03T09:38:27Z</time>
      </trkpt>
      <trkpt lon="11.2005052567" lat="47.2243881226">
          <ele>1717</ele>
          <time>2026-05-03T09:39:00Z</time>
      </trkpt>
      <trkpt lon="11.2003631592" lat="47.2243614197">
          <ele>1720</ele>
          <time>2026-05-03T09:39:37Z</time>
      </trkpt>
      <trkpt lon="11.2002105713" lat="47.2243461609">
          <ele>1722</ele>
          <time>2026-05-03T09:40:03Z</time>
      </trkpt>
      <trkpt lon="11.200088501" lat="47.2243156433">
          <ele>1727</ele>
          <time>2026-05-03T09:40:42Z</time>
      </trkpt>
      <trkpt lon="11.1999645233" lat="47.2243537903">
          <ele>1731</ele>
          <time>2026-05-03T09:41:03Z</time>
      </trkpt>
      <trkpt lon="11.1998195648" lat="47.2243766785">
          <ele>1733</ele>
          <time>2026-05-03T09:41:32Z</time>
      </trkpt>
      <trkpt lon="11.1996803284" lat="47.2243995667">
          <ele>1735</ele>
          <time>2026-05-03T09:42:06Z</time>
      </trkpt>
      <trkpt lon="11.1995220184" lat="47.224407196">
          <ele>1736</ele>
          <time>2026-05-03T09:42:26Z</time>
      </trkpt>
      <trkpt lon="11.1993741989" lat="47.2244186401">
          <ele>1737</ele>
          <time>2026-05-03T09:42:48Z</time>
      </trkpt>
      <trkpt lon="11.19921875" lat="47.2244224548">
          <ele>1739</ele>
          <time>2026-05-03T09:43:15Z</time>
      </trkpt>
      <trkpt lon="11.1990976334" lat="47.2244338989">
          <ele>1745</ele>
          <time>2026-05-03T09:43:47Z</time>
      </trkpt>
      <trkpt lon="11.1989459991" lat="47.2244262695">
          <ele>1747</ele>
          <time>2026-05-03T09:44:18Z</time>
      </trkpt>
      <trkpt lon="11.1988039017" lat="47.2244224548">
          <ele>1750</ele>
          <time>2026-05-03T09:44:53Z</time>
      </trkpt>
      <trkpt lon="11.1986665726" lat="47.2244186401">
          <ele>1754</ele>
          <time>2026-05-03T09:45:36Z</time>
      </trkpt>
      <trkpt lon="11.1985473633" lat="47.2243728638">
          <ele>1758</ele>
          <time>2026-05-03T09:46:10Z</time>
      </trkpt>
      <trkpt lon="11.1984033585" lat="47.2243652344">
          <ele>1760</ele>
          <time>2026-05-03T09:46:43Z</time>
      </trkpt>
      <trkpt lon="11.1982698441" lat="47.2243347168">
          <ele>1764</ele>
          <time>2026-05-03T09:47:12Z</time>
      </trkpt>
      <trkpt lon="11.1981306076" lat="47.2243080139">
          <ele>1766</ele>
          <time>2026-05-03T09:47:35Z</time>
      </trkpt>
      <trkpt lon="11.1979923248" lat="47.2242660522">
          <ele>1767</ele>
          <time>2026-05-03T09:47:56Z</time>
      </trkpt>
      <trkpt lon="11.1978578568" lat="47.2242469788">
          <ele>1771</ele>
          <time>2026-05-03T09:48:25Z</time>
      </trkpt>
      <trkpt lon="11.1976985931" lat="47.2242126465">
          <ele>1774</ele>
          <time>2026-05-03T09:49:13Z</time>
      </trkpt>
      <trkpt lon="11.1976041794" lat="47.2241668701">
          <ele>1781</ele>
          <time>2026-05-03T09:52:49Z</time>
      </trkpt>
      <trkpt lon="11.1975107193" lat="47.2240905762">
          <ele>1782</ele>
          <time>2026-05-03T09:53:17Z</time>
      </trkpt>
      <trkpt lon="11.1974363327" lat="47.2240104675">
          <ele>1786</ele>
          <time>2026-05-03T09:54:11Z</time>
      </trkpt>
      <trkpt lon="11.1973295212" lat="47.2239341736">
          <ele>1787</ele>
          <time>2026-05-03T09:54:45Z</time>
      </trkpt>
      <trkpt lon="11.1972703934" lat="47.2238464355">
          <ele>1790</ele>
          <time>2026-05-03T09:55:12Z</time>
      </trkpt>
      <trkpt lon="11.1972284317" lat="47.2237472534">
          <ele>1794</ele>
          <time>2026-05-03T09:55:54Z</time>
      </trkpt>
      <trkpt lon="11.197227478" lat="47.2236366272">
          <ele>1798</ele>
          <time>2026-05-03T09:56:29Z</time>
      </trkpt>
      <trkpt lon="11.1971330643" lat="47.2235641479">
          <ele>1801</ele>
          <time>2026-05-03T09:57:08Z</time>
      </trkpt>
      <trkpt lon="11.1970844269" lat="47.2234840393">
          <ele>1807</ele>
          <time>2026-05-03T09:57:44Z</time>
      </trkpt>
      <trkpt lon="11.1970214844" lat="47.2233924866">
          <ele>1809</ele>
          <time>2026-05-03T09:58:11Z</time>
      </trkpt>
      <trkpt lon="11.1969594955" lat="47.2233009338">
          <ele>1809</ele>
          <time>2026-05-03T09:58:41Z</time>
      </trkpt>
      <trkpt lon="11.1968660355" lat="47.2232322693">
          <ele>1813</ele>
          <time>2026-05-03T09:59:07Z</time>
      </trkpt>
      <trkpt lon="11.1967782974" lat="47.2231445313">
          <ele>1817</ele>
          <time>2026-05-03T09:59:44Z</time>
      </trkpt>
      <trkpt lon="11.196680069" lat="47.223072052">
          <ele>1821</ele>
          <time>2026-05-03T10:00:17Z</time>
      </trkpt>
      <trkpt lon="11.1965560913" lat="47.2230110168">
          <ele>1822</ele>
          <time>2026-05-03T10:00:48Z</time>
      </trkpt>
      <trkpt lon="11.1964569092" lat="47.2229499817">
          <ele>1827</ele>
          <time>2026-05-03T10:01:16Z</time>
      </trkpt>
      <trkpt lon="11.1963586807" lat="47.2228736877">
          <ele>1829</ele>
          <time>2026-05-03T10:01:46Z</time>
      </trkpt>
      <trkpt lon="11.1962270737" lat="47.2228240967">
          <ele>1832</ele>
          <time>2026-05-03T10:02:18Z</time>
      </trkpt>
      <trkpt lon="11.1961727142" lat="47.2227363586">
          <ele>1835</ele>
          <time>2026-05-03T10:02:53Z</time>
      </trkpt>
      <trkpt lon="11.1960773468" lat="47.2226638794">
          <ele>1838</ele>
          <time>2026-05-03T10:03:19Z</time>
      </trkpt>
      <trkpt lon="11.195980072" lat="47.2225761414">
          <ele>1840</ele>
          <time>2026-05-03T10:03:49Z</time>
      </trkpt>
      <trkpt lon="11.1959104538" lat="47.2224884033">
          <ele>1842</ele>
          <time>2026-05-03T10:04:14Z</time>
      </trkpt>
      <trkpt lon="11.1958007813" lat="47.2224082947">
          <ele>1845</ele>
          <time>2026-05-03T10:04:43Z</time>
      </trkpt>
      <trkpt lon="11.1956653595" lat="47.222366333">
          <ele>1848</ele>
          <time>2026-05-03T10:05:12Z</time>
      </trkpt>
      <trkpt lon="11.195526123" lat="47.2223243713">
          <ele>1848</ele>
          <time>2026-05-03T10:05:39Z</time>
      </trkpt>
      <trkpt lon="11.1954402924" lat="47.2222671509">
          <ele>1855</ele>
          <time>2026-05-03T10:06:13Z</time>
      </trkpt>
      <trkpt lon="11.1953010559" lat="47.2222251892">
          <ele>1857</ele>
          <time>2026-05-03T10:06:48Z</time>
      </trkpt>
      <trkpt lon="11.1952524185" lat="47.2221450806">
          <ele>1864</ele>
          <time>2026-05-03T10:07:19Z</time>
      </trkpt>
      <trkpt lon="11.1951322556" lat="47.2220878601">
          <ele>1866</ele>
          <time>2026-05-03T10:07:48Z</time>
      </trkpt>
      <trkpt lon="11.1950426102" lat="47.2221641541">
          <ele>1869</ele>
          <time>2026-05-03T10:08:24Z</time>
      </trkpt>
      <trkpt lon="11.1949033737" lat="47.222202301">
          <ele>1870</ele>
          <time>2026-05-03T10:26:45Z</time>
      </trkpt>
      <trkpt lon="11.1950378418" lat="47.2221679688">
          <ele>1868</ele>
          <time>2026-05-03T10:29:42Z</time>
      </trkpt>
      <trkpt lon="11.1950721741" lat="47.2220726013">
          <ele>1871</ele>
          <time>2026-05-03T10:30:25Z</time>
      </trkpt>
      <trkpt lon="11.1952352524" lat="47.2221221924">
          <ele>1868</ele>
          <time>2026-05-03T10:30:32Z</time>
      </trkpt>
      <trkpt lon="11.1952972412" lat="47.2222137451">
          <ele>1865</ele>
          <time>2026-05-03T10:30:37Z</time>
      </trkpt>
      <trkpt lon="11.1954421997" lat="47.2222595215">
          <ele>1861</ele>
          <time>2026-05-03T10:30:43Z</time>
      </trkpt>
      <trkpt lon="11.1955776215" lat="47.2223167419">
          <ele>1857</ele>
          <time>2026-05-03T10:30:49Z</time>
      </trkpt>
      <trkpt lon="11.1957015991" lat="47.2223777771">
          <ele>1854</ele>
          <time>2026-05-03T10:30:53Z</time>
      </trkpt>
      <trkpt lon="11.1958332062" lat="47.2224273682">
          <ele>1851</ele>
          <time>2026-05-03T10:30:57Z</time>
      </trkpt>
      <trkpt lon="11.1959609985" lat="47.2225227356">
          <ele>1848</ele>
          <time>2026-05-03T10:31:01Z</time>
      </trkpt>
      <trkpt lon="11.1960401535" lat="47.2226066589">
          <ele>1846</ele>
          <time>2026-05-03T10:31:04Z</time>
      </trkpt>
      <trkpt lon="11.1961202621" lat="47.2226867676">
          <ele>1842</ele>
          <time>2026-05-03T10:31:07Z</time>
      </trkpt>
      <trkpt lon="11.1961994171" lat="47.222782135">
          <ele>1840</ele>
          <time>2026-05-03T10:31:11Z</time>
      </trkpt>
      <trkpt lon="11.1963396072" lat="47.2228622437">
          <ele>1839</ele>
          <time>2026-05-03T10:31:16Z</time>
      </trkpt>
      <trkpt lon="11.1964387894" lat="47.2229270935">
          <ele>1834</ele>
          <time>2026-05-03T10:31:19Z</time>
      </trkpt>
      <trkpt lon="11.1965503693" lat="47.2229957581">
          <ele>1827</ele>
          <time>2026-05-03T10:31:23Z</time>
      </trkpt>
      <trkpt lon="11.1966953278" lat="47.2230796814">
          <ele>1824</ele>
          <time>2026-05-03T10:31:27Z</time>
      </trkpt>
      <trkpt lon="11.1968097687" lat="47.2231712341">
          <ele>1822</ele>
          <time>2026-05-03T10:31:31Z</time>
      </trkpt>
      <trkpt lon="11.1969213486" lat="47.2232589722">
          <ele>1820</ele>
          <time>2026-05-03T10:31:36Z</time>
      </trkpt>
      <trkpt lon="11.1970262527" lat="47.2233695984">
          <ele>1816</ele>
          <time>2026-05-03T10:31:40Z</time>
      </trkpt>
      <trkpt lon="11.1970844269" lat="47.2234649658">
          <ele>1814</ele>
          <time>2026-05-03T10:31:43Z</time>
      </trkpt>
      <trkpt lon="11.1971597672" lat="47.2235603333">
          <ele>1812</ele>
          <time>2026-05-03T10:31:48Z</time>
      </trkpt>
      <trkpt lon="11.1972150803" lat="47.2236328125">
          <ele>1804</ele>
          <time>2026-05-03T10:31:53Z</time>
      </trkpt>
      <trkpt lon="11.1972579956" lat="47.223739624">
          <ele>1802</ele>
          <time>2026-05-03T10:31:57Z</time>
      </trkpt>
      <trkpt lon="11.1972761154" lat="47.2238540649">
          <ele>1800</ele>
          <time>2026-05-03T10:32:02Z</time>
      </trkpt>
      <trkpt lon="11.1973638535" lat="47.2239532471">
          <ele>1797</ele>
          <time>2026-05-03T10:32:06Z</time>
      </trkpt>
      <trkpt lon="11.1974639893" lat="47.224029541">
          <ele>1793</ele>
          <time>2026-05-03T10:32:10Z</time>
      </trkpt>
      <trkpt lon="11.1975393295" lat="47.2241210938">
          <ele>1790</ele>
          <time>2026-05-03T10:32:14Z</time>
      </trkpt>
      <trkpt lon="11.19764328" lat="47.224193573">
          <ele>1787</ele>
          <time>2026-05-03T10:32:18Z</time>
      </trkpt>
      <trkpt lon="11.1977787018" lat="47.2242546082">
          <ele>1784</ele>
          <time>2026-05-03T10:32:22Z</time>
      </trkpt>
      <trkpt lon="11.1979093552" lat="47.2242431641">
          <ele>1779</ele>
          <time>2026-05-03T10:32:33Z</time>
      </trkpt>
      <trkpt lon="11.1980628967" lat="47.224281311">
          <ele>1777</ele>
          <time>2026-05-03T10:32:36Z</time>
      </trkpt>
      <trkpt lon="11.1982164383" lat="47.2243156433">
          <ele>1771</ele>
          <time>2026-05-03T10:33:04Z</time>
      </trkpt>
      <trkpt lon="11.198392868" lat="47.2243461609">
          <ele>1770</ele>
          <time>2026-05-03T10:33:08Z</time>
      </trkpt>
      <trkpt lon="11.1985759735" lat="47.2243804932">
          <ele>1767</ele>
          <time>2026-05-03T10:33:12Z</time>
      </trkpt>
      <trkpt lon="11.1987142563" lat="47.2244186401">
          <ele>1763</ele>
          <time>2026-05-03T10:33:16Z</time>
      </trkpt>
      <trkpt lon="11.1988487244" lat="47.2244262695">
          <ele>1758</ele>
          <time>2026-05-03T10:33:21Z</time>
      </trkpt>
      <trkpt lon="11.1989898682" lat="47.2244262695">
          <ele>1754</ele>
          <time>2026-05-03T10:33:25Z</time>
      </trkpt>
      <trkpt lon="11.1991481781" lat="47.2244300842">
          <ele>1752</ele>
          <time>2026-05-03T10:33:28Z</time>
      </trkpt>
      <trkpt lon="11.1993608475" lat="47.224407196">
          <ele>1749</ele>
          <time>2026-05-03T10:33:31Z</time>
      </trkpt>
      <trkpt lon="11.1995306015" lat="47.2243995667">
          <ele>1746</ele>
          <time>2026-05-03T10:33:33Z</time>
      </trkpt>
      <trkpt lon="11.1996841431" lat="47.2243919373">
          <ele>1743</ele>
          <time>2026-05-03T10:33:35Z</time>
      </trkpt>
      <trkpt lon="11.1998386383" lat="47.2243614197">
          <ele>1739</ele>
          <time>2026-05-03T10:33:38Z</time>
      </trkpt>
      <trkpt lon="11.1999912262" lat="47.2243270874">
          <ele>1737</ele>
          <time>2026-05-03T10:33:41Z</time>
      </trkpt>
      <trkpt lon="11.2001495361" lat="47.2243156433">
          <ele>1734</ele>
          <time>2026-05-03T10:33:44Z</time>
      </trkpt>
      <trkpt lon="11.2003383636" lat="47.2243423462">
          <ele>1730</ele>
          <time>2026-05-03T10:33:47Z</time>
      </trkpt>
      <trkpt lon="11.2005205154" lat="47.2243766785">
          <ele>1726</ele>
          <time>2026-05-03T10:33:50Z</time>
      </trkpt>
      <trkpt lon="11.2006797791" lat="47.2243804932">
          <ele>1721</ele>
          <time>2026-05-03T10:33:53Z</time>
      </trkpt>
      <trkpt lon="11.2008390427" lat="47.2243690491">
          <ele>1716</ele>
          <time>2026-05-03T10:33:57Z</time>
      </trkpt>
      <trkpt lon="11.2010068893" lat="47.2243499756">
          <ele>1712</ele>
          <time>2026-05-03T10:34:01Z</time>
      </trkpt>
      <trkpt lon="11.2011222839" lat="47.2244148254">
          <ele>1708</ele>
          <time>2026-05-03T10:34:05Z</time>
      </trkpt>
      <trkpt lon="11.2012863159" lat="47.2244529724">
          <ele>1705</ele>
          <time>2026-05-03T10:34:08Z</time>
      </trkpt>
      <trkpt lon="11.2014188766" lat="47.2244949341">
          <ele>1701</ele>
          <time>2026-05-03T10:34:11Z</time>
      </trkpt>
      <trkpt lon="11.201540947" lat="47.2245483398">
          <ele>1696</ele>
          <time>2026-05-03T10:34:15Z</time>
      </trkpt>
      <trkpt lon="11.2017011642" lat="47.2245635986">
          <ele>1693</ele>
          <time>2026-05-03T10:34:20Z</time>
      </trkpt>
      <trkpt lon="11.201842308" lat="47.2245330811">
          <ele>1688</ele>
          <time>2026-05-03T10:34:25Z</time>
      </trkpt>
      <trkpt lon="11.2019805908" lat="47.2245674133">
          <ele>1684</ele>
          <time>2026-05-03T10:34:32Z</time>
      </trkpt>
      <trkpt lon="11.2021112442" lat="47.224609375">
          <ele>1682</ele>
          <time>2026-05-03T10:34:37Z</time>
      </trkpt>
      <trkpt lon="11.2022571564" lat="47.2246284485">
          <ele>1679</ele>
          <time>2026-05-03T10:34:42Z</time>
      </trkpt>
      <trkpt lon="11.2023859024" lat="47.2246551514">
          <ele>1674</ele>
          <time>2026-05-03T10:34:49Z</time>
      </trkpt>
      <trkpt lon="11.2025279999" lat="47.2246589661">
          <ele>1671</ele>
          <time>2026-05-03T10:35:13Z</time>
      </trkpt>
      <trkpt lon="11.2026939392" lat="47.2246818542">
          <ele>1669</ele>
          <time>2026-05-03T10:35:17Z</time>
      </trkpt>
      <trkpt lon="11.2028779984" lat="47.2246742249">
          <ele>1664</ele>
          <time>2026-05-03T10:35:21Z</time>
      </trkpt>
      <trkpt lon="11.203045845" lat="47.2247047424">
          <ele>1660</ele>
          <time>2026-05-03T10:35:25Z</time>
      </trkpt>
      <trkpt lon="11.2031927109" lat="47.2247200012">
          <ele>1657</ele>
          <time>2026-05-03T10:35:28Z</time>
      </trkpt>
      <trkpt lon="11.2033653259" lat="47.2247238159">
          <ele>1654</ele>
          <time>2026-05-03T10:35:31Z</time>
      </trkpt>
      <trkpt lon="11.20353508" lat="47.2247314453">
          <ele>1652</ele>
          <time>2026-05-03T10:35:34Z</time>
      </trkpt>
      <trkpt lon="11.2036972046" lat="47.2247543335">
          <ele>1649</ele>
          <time>2026-05-03T10:35:37Z</time>
      </trkpt>
      <trkpt lon="11.2038631439" lat="47.2247772217">
          <ele>1647</ele>
          <time>2026-05-03T10:35:40Z</time>
      </trkpt>
      <trkpt lon="11.2040529251" lat="47.2247886658">
          <ele>1645</ele>
          <time>2026-05-03T10:35:43Z</time>
      </trkpt>
      <trkpt lon="11.2042140961" lat="47.2247886658">
          <ele>1641</ele>
          <time>2026-05-03T10:35:46Z</time>
      </trkpt>
      <trkpt lon="11.2043466568" lat="47.2248001099">
          <ele>1636</ele>
          <time>2026-05-03T10:35:51Z</time>
      </trkpt>
      <trkpt lon="11.2044563293" lat="47.2248573303">
          <ele>1631</ele>
          <time>2026-05-03T10:36:59Z</time>
      </trkpt>
      <trkpt lon="11.2046098709" lat="47.2248649597">
          <ele>1630</ele>
          <time>2026-05-03T10:37:02Z</time>
      </trkpt>
      <trkpt lon="11.2047567368" lat="47.2248687744">
          <ele>1627</ele>
          <time>2026-05-03T10:37:05Z</time>
      </trkpt>
      <trkpt lon="11.2049016953" lat="47.2248535156">
          <ele>1625</ele>
          <time>2026-05-03T10:37:08Z</time>
      </trkpt>
      <trkpt lon="11.205072403" lat="47.2248458862">
          <ele>1623</ele>
          <time>2026-05-03T10:37:12Z</time>
      </trkpt>
      <trkpt lon="11.2052202225" lat="47.2248458862">
          <ele>1621</ele>
          <time>2026-05-03T10:37:15Z</time>
      </trkpt>
      <trkpt lon="11.2053756714" lat="47.2248382568">
          <ele>1618</ele>
          <time>2026-05-03T10:37:19Z</time>
      </trkpt>
      <trkpt lon="11.2055244446" lat="47.2248306274">
          <ele>1611</ele>
          <time>2026-05-03T10:37:25Z</time>
      </trkpt>
      <trkpt lon="11.2056798935" lat="47.2248649597">
          <ele>1608</ele>
          <time>2026-05-03T10:37:30Z</time>
      </trkpt>
      <trkpt lon="11.2058486938" lat="47.2248573303">
          <ele>1604</ele>
          <time>2026-05-03T10:37:35Z</time>
      </trkpt>
      <trkpt lon="11.2059926987" lat="47.2248535156">
          <ele>1601</ele>
          <time>2026-05-03T10:37:39Z</time>
      </trkpt>
      <trkpt lon="11.2061195374" lat="47.2248725891">
          <ele>1596</ele>
          <time>2026-05-03T10:37:45Z</time>
      </trkpt>
      <trkpt lon="11.2060556412" lat="47.2247772217">
          <ele>1595</ele>
          <time>2026-05-03T10:37:59Z</time>
      </trkpt>
      <trkpt lon="11.2062158585" lat="47.2247924805">
          <ele>1596</ele>
          <time>2026-05-03T10:38:06Z</time>
      </trkpt>
      <trkpt lon="11.2063674927" lat="47.2247619629">
          <ele>1594</ele>
          <time>2026-05-03T10:38:12Z</time>
      </trkpt>
      <trkpt lon="11.2064990997" lat="47.2247085571">
          <ele>1593</ele>
          <time>2026-05-03T10:38:16Z</time>
      </trkpt>
      <trkpt lon="11.2066545486" lat="47.2246894836">
          <ele>1590</ele>
          <time>2026-05-03T10:38:20Z</time>
      </trkpt>
      <trkpt lon="11.20682621" lat="47.2246932983">
          <ele>1589</ele>
          <time>2026-05-03T10:38:23Z</time>
      </trkpt>
      <trkpt lon="11.2070207596" lat="47.2246780396">
          <ele>1586</ele>
          <time>2026-05-03T10:38:26Z</time>
      </trkpt>
      <trkpt lon="11.2071781158" lat="47.2246398926">
          <ele>1583</ele>
          <time>2026-05-03T10:38:29Z</time>
      </trkpt>
      <trkpt lon="11.2073326111" lat="47.2246246338">
          <ele>1579</ele>
          <time>2026-05-03T10:38:32Z</time>
      </trkpt>
      <trkpt lon="11.2074651718" lat="47.2245864868">
          <ele>1576</ele>
          <time>2026-05-03T10:38:35Z</time>
      </trkpt>
      <trkpt lon="11.207649231" lat="47.2245445251">
          <ele>1573</ele>
          <time>2026-05-03T10:38:38Z</time>
      </trkpt>
      <trkpt lon="11.2078056335" lat="47.2245025635">
          <ele>1571</ele>
          <time>2026-05-03T10:38:41Z</time>
      </trkpt>
      <trkpt lon="11.2079277039" lat="47.2244415283">
          <ele>1569</ele>
          <time>2026-05-03T10:38:44Z</time>
      </trkpt>
      <trkpt lon="11.2080583572" lat="47.2243919373">
          <ele>1568</ele>
          <time>2026-05-03T10:38:47Z</time>
      </trkpt>
      <trkpt lon="11.2082166672" lat="47.2243385315">
          <ele>1566</ele>
          <time>2026-05-03T10:38:50Z</time>
      </trkpt>
      <trkpt lon="11.2083005905" lat="47.2242774963">
          <ele>1557</ele>
          <time>2026-05-03T10:39:44Z</time>
      </trkpt>
      <trkpt lon="11.2083272934" lat="47.2241592407">
          <ele>1551</ele>
          <time>2026-05-03T10:39:48Z</time>
      </trkpt>
      <trkpt lon="11.2083282471" lat="47.2240562439">
          <ele>1545</ele>
          <time>2026-05-03T10:39:51Z</time>
      </trkpt>
      <trkpt lon="11.2083454132" lat="47.2239608765">
          <ele>1539</ele>
          <time>2026-05-03T10:39:55Z</time>
      </trkpt>
      <trkpt lon="11.2083101273" lat="47.2238616943">
          <ele>1535</ele>
          <time>2026-05-03T10:40:01Z</time>
      </trkpt>
      <trkpt lon="11.2082843781" lat="47.2237701416">
          <ele>1531</ele>
          <time>2026-05-03T10:40:07Z</time>
      </trkpt>
      <trkpt lon="11.2083864212" lat="47.2237091064">
          <ele>1527</ele>
          <time>2026-05-03T10:40:13Z</time>
      </trkpt>
      <trkpt lon="11.2082843781" lat="47.2236175537">
          <ele>1524</ele>
          <time>2026-05-03T10:40:19Z</time>
      </trkpt>
      <trkpt lon="11.208240509" lat="47.2234954834">
          <ele>1522</ele>
          <time>2026-05-03T10:40:23Z</time>
      </trkpt>
      <trkpt lon="11.208231926" lat="47.223400116">
          <ele>1519</ele>
          <time>2026-05-03T10:40:26Z</time>
      </trkpt>
      <trkpt lon="11.2082061768" lat="47.2233047485">
          <ele>1516</ele>
          <time>2026-05-03T10:40:29Z</time>
      </trkpt>
      <trkpt lon="11.2081413269" lat="47.2232055664">
          <ele>1513</ele>
          <time>2026-05-03T10:40:33Z</time>
      </trkpt>
      <trkpt lon="11.2080535889" lat="47.2231063843">
          <ele>1511</ele>
          <time>2026-05-03T10:40:37Z</time>
      </trkpt>
      <trkpt lon="11.2079849243" lat="47.2230186462">
          <ele>1510</ele>
          <time>2026-05-03T10:40:40Z</time>
      </trkpt>
      <trkpt lon="11.2079362869" lat="47.2229156494">
          <ele>1508</ele>
          <time>2026-05-03T10:40:44Z</time>
      </trkpt>
      <trkpt lon="11.2080383301" lat="47.2228240967">
          <ele>1505</ele>
          <time>2026-05-03T10:40:48Z</time>
      </trkpt>
      <trkpt lon="11.2081766129" lat="47.2227897644">
          <ele>1502</ele>
          <time>2026-05-03T10:40:51Z</time>
      </trkpt>
      <trkpt lon="11.2083463669" lat="47.2227592468">
          <ele>1498</ele>
          <time>2026-05-03T10:40:55Z</time>
      </trkpt>
      <trkpt lon="11.2083749771" lat="47.2226600647">
          <ele>1491</ele>
          <time>2026-05-03T10:41:03Z</time>
      </trkpt>
      <trkpt lon="11.2082653046" lat="47.2225646973">
          <ele>1488</ele>
          <time>2026-05-03T10:41:06Z</time>
      </trkpt>
      <trkpt lon="11.2082147598" lat="47.222442627">
          <ele>1483</ele>
          <time>2026-05-03T10:41:10Z</time>
      </trkpt>
      <trkpt lon="11.208240509" lat="47.2223548889">
          <ele>1477</ele>
          <time>2026-05-03T10:41:13Z</time>
      </trkpt>
      <trkpt lon="11.2083473206" lat="47.2223014832">
          <ele>1471</ele>
          <time>2026-05-03T10:41:16Z</time>
      </trkpt>
      <trkpt lon="11.2084922791" lat="47.2222671509">
          <ele>1464</ele>
          <time>2026-05-03T10:41:21Z</time>
      </trkpt>
      <trkpt lon="11.2086362839" lat="47.2222633362">
          <ele>1459</ele>
          <time>2026-05-03T10:41:25Z</time>
      </trkpt>
      <trkpt lon="11.208779335" lat="47.2222518921">
          <ele>1456</ele>
          <time>2026-05-03T10:41:29Z</time>
      </trkpt>
      <trkpt lon="11.2089567184" lat="47.2222366333">
          <ele>1453</ele>
          <time>2026-05-03T10:41:34Z</time>
      </trkpt>
      <trkpt lon="11.2091159821" lat="47.222202301">
          <ele>1451</ele>
          <time>2026-05-03T10:41:38Z</time>
      </trkpt>
      <trkpt lon="11.2092695236" lat="47.2221488953">
          <ele>1449</ele>
          <time>2026-05-03T10:41:43Z</time>
      </trkpt>
      <trkpt lon="11.2094106674" lat="47.2221260071">
          <ele>1447</ele>
          <time>2026-05-03T10:41:47Z</time>
      </trkpt>
      <trkpt lon="11.2095708847" lat="47.2221107483">
          <ele>1444</ele>
          <time>2026-05-03T10:41:52Z</time>
      </trkpt>
      <trkpt lon="11.2097263336" lat="47.2220840454">
          <ele>1440</ele>
          <time>2026-05-03T10:41:58Z</time>
      </trkpt>
      <trkpt lon="11.2099094391" lat="47.2220802307">
          <ele>1438</ele>
          <time>2026-05-03T10:42:03Z</time>
      </trkpt>
      <trkpt lon="11.2100458145" lat="47.2220687866">
          <ele>1434</ele>
          <time>2026-05-03T10:42:09Z</time>
      </trkpt>
      <trkpt lon="11.2102079391" lat="47.2220611572">
          <ele>1430</ele>
          <time>2026-05-03T10:42:23Z</time>
      </trkpt>
      <trkpt lon="11.2103500366" lat="47.2220344543">
          <ele>1425</ele>
          <time>2026-05-03T10:42:27Z</time>
      </trkpt>
      <trkpt lon="11.2104730606" lat="47.2220153809">
          <ele>1419</ele>
          <time>2026-05-03T10:42:31Z</time>
      </trkpt>
      <trkpt lon="11.2106285095" lat="47.2219848633">
          <ele>1416</ele>
          <time>2026-05-03T10:42:36Z</time>
      </trkpt>
      <trkpt lon="11.2108049393" lat="47.2219734192">
          <ele>1414</ele>
          <time>2026-05-03T10:42:40Z</time>
      </trkpt>
      <trkpt lon="11.2109851837" lat="47.2219429016">
          <ele>1412</ele>
          <time>2026-05-03T10:42:43Z</time>
      </trkpt>
      <trkpt lon="11.2111415863" lat="47.2219238281">
          <ele>1406</ele>
          <time>2026-05-03T10:42:47Z</time>
      </trkpt>
      <trkpt lon="11.2112779617" lat="47.2219238281">
          <ele>1400</ele>
          <time>2026-05-03T10:42:52Z</time>
      </trkpt>
      <trkpt lon="11.2113924026" lat="47.2220039368">
          <ele>1399</ele>
          <time>2026-05-03T10:43:01Z</time>
      </trkpt>
      <trkpt lon="11.2114801407" lat="47.222076416">
          <ele>1405</ele>
          <time>2026-05-03T10:43:06Z</time>
      </trkpt>
      <trkpt lon="11.2115678787" lat="47.2221603394">
          <ele>1409</ele>
          <time>2026-05-03T10:43:10Z</time>
      </trkpt>
      <trkpt lon="11.2116670609" lat="47.222240448">
          <ele>1414</ele>
          <time>2026-05-03T10:43:15Z</time>
      </trkpt>
      <trkpt lon="11.2117357254" lat="47.2223205566">
          <ele>1418</ele>
          <time>2026-05-03T10:43:21Z</time>
      </trkpt>
      <trkpt lon="11.2118587494" lat="47.2223815918">
          <ele>1421</ele>
          <time>2026-05-03T10:43:26Z</time>
      </trkpt>
      <trkpt lon="11.2119598389" lat="47.2224617004">
          <ele>1425</ele>
          <time>2026-05-03T10:43:32Z</time>
      </trkpt>
      <trkpt lon="11.2120790482" lat="47.2225494385">
          <ele>1427</ele>
          <time>2026-05-03T10:43:38Z</time>
      </trkpt>
      <trkpt lon="11.2122306824" lat="47.2226142883">
          <ele>1427</ele>
          <time>2026-05-03T10:43:42Z</time>
      </trkpt>
      <trkpt lon="11.2123432159" lat="47.2226867676">
          <ele>1426</ele>
          <time>2026-05-03T10:43:47Z</time>
      </trkpt>
      <trkpt lon="11.2124347687" lat="47.2227859497">
          <ele>1424</ele>
          <time>2026-05-03T10:43:52Z</time>
      </trkpt>
      <trkpt lon="11.2125244141" lat="47.2228660583">
          <ele>1422</ele>
          <time>2026-05-03T10:43:58Z</time>
      </trkpt>
      <trkpt lon="11.2126321793" lat="47.2229537964">
          <ele>1425</ele>
          <time>2026-05-03T10:44:04Z</time>
      </trkpt>
      <trkpt lon="11.2127332687" lat="47.2230415344">
          <ele>1426</ele>
          <time>2026-05-03T10:44:09Z</time>
      </trkpt>
      <trkpt lon="11.2128391266" lat="47.223110199">
          <ele>1425</ele>
          <time>2026-05-03T10:44:12Z</time>
      </trkpt>
      <trkpt lon="11.2129468918" lat="47.2231788635">
          <ele>1425</ele>
          <time>2026-05-03T10:44:16Z</time>
      </trkpt>
      <trkpt lon="11.2130327225" lat="47.2232666016">
          <ele>1425</ele>
          <time>2026-05-03T10:44:22Z</time>
      </trkpt>
      <trkpt lon="11.2131271362" lat="47.2233657837">
          <ele>1424</ele>
          <time>2026-05-03T10:44:26Z</time>
      </trkpt>
      <trkpt lon="11.2132129669" lat="47.2234611511">
          <ele>1421</ele>
          <time>2026-05-03T10:44:31Z</time>
      </trkpt>
      <trkpt lon="11.213259697" lat="47.2235717773">
          <ele>1416</ele>
          <time>2026-05-03T10:44:36Z</time>
      </trkpt>
      <trkpt lon="11.213353157" lat="47.2236633301">
          <ele>1411</ele>
          <time>2026-05-03T10:44:41Z</time>
      </trkpt>
      <trkpt lon="11.213429451" lat="47.2237586975">
          <ele>1406</ele>
          <time>2026-05-03T10:44:45Z</time>
      </trkpt>
      <trkpt lon="11.213511467" lat="47.2238388062">
          <ele>1404</ele>
          <time>2026-05-03T10:44:48Z</time>
      </trkpt>
      <trkpt lon="11.213593483" lat="47.2239456177">
          <ele>1401</ele>
          <time>2026-05-03T10:44:51Z</time>
      </trkpt>
      <trkpt lon="11.2136955261" lat="47.2240829468">
          <ele>1400</ele>
          <time>2026-05-03T10:44:54Z</time>
      </trkpt>
      <trkpt lon="11.2138080597" lat="47.2242088318">
          <ele>1399</ele>
          <time>2026-05-03T10:44:57Z</time>
      </trkpt>
      <trkpt lon="11.213891983" lat="47.2242965698">
          <ele>1398</ele>
          <time>2026-05-03T10:44:59Z</time>
      </trkpt>
      <trkpt lon="11.2139949799" lat="47.224407196">
          <ele>1398</ele>
          <time>2026-05-03T10:45:01Z</time>
      </trkpt>
      <trkpt lon="11.2140951157" lat="47.2245063782">
          <ele>1397</ele>
          <time>2026-05-03T10:45:03Z</time>
      </trkpt>
      <trkpt lon="11.214179039" lat="47.2246284485">
          <ele>1394</ele>
          <time>2026-05-03T10:45:06Z</time>
      </trkpt>
      <trkpt lon="11.2142705917" lat="47.2245903015">
          <ele>1386</ele>
          <time>2026-05-03T10:45:14Z</time>
      </trkpt>
      <trkpt lon="11.2143583298" lat="47.2246665955">
          <ele>1382</ele>
          <time>2026-05-03T10:45:23Z</time>
      </trkpt>
      <trkpt lon="11.2144641876" lat="47.2247543335">
          <ele>1380</ele>
          <time>2026-05-03T10:45:27Z</time>
      </trkpt>
      <trkpt lon="11.2144775391" lat="47.2248497009">
          <ele>1377</ele>
          <time>2026-05-03T10:45:31Z</time>
      </trkpt>
      <trkpt lon="11.2145614624" lat="47.2249069214">
          <ele>1369</ele>
          <time>2026-05-03T10:45:37Z</time>
      </trkpt>
      <trkpt lon="11.2147083282" lat="47.2249183655">
          <ele>1364</ele>
          <time>2026-05-03T10:45:42Z</time>
      </trkpt>
      <trkpt lon="11.2147474289" lat="47.2249908447">
          <ele>1356</ele>
          <time>2026-05-03T10:45:50Z</time>
      </trkpt>
      <trkpt lon="11.214849472" lat="47.225025177">
          <ele>1349</ele>
          <time>2026-05-03T10:46:15Z</time>
      </trkpt>
      <trkpt lon="11.2150001526" lat="47.225025177">
          <ele>1346</ele>
          <time>2026-05-03T10:46:33Z</time>
      </trkpt>
      <trkpt lon="11.2151412964" lat="47.2250022888">
          <ele>1344</ele>
          <time>2026-05-03T10:46:37Z</time>
      </trkpt>
      <trkpt lon="11.2152423859" lat="47.2250709534">
          <ele>1341</ele>
          <time>2026-05-03T10:46:44Z</time>
      </trkpt>
      <trkpt lon="11.2153987885" lat="47.2250747681">
          <ele>1338</ele>
          <time>2026-05-03T10:46:50Z</time>
      </trkpt>
      <trkpt lon="11.2155408859" lat="47.2250862122">
          <ele>1333</ele>
          <time>2026-05-03T10:46:56Z</time>
      </trkpt>
      <trkpt lon="11.2156648636" lat="47.2251358032">
          <ele>1327</ele>
          <time>2026-05-03T10:47:05Z</time>
      </trkpt>
      <trkpt lon="11.215716362" lat="47.2252006531">
          <ele>1319</ele>
          <time>2026-05-03T10:47:19Z</time>
      </trkpt>
      <trkpt lon="11.2158412933" lat="47.2252006531">
          <ele>1313</ele>
          <time>2026-05-03T10:47:40Z</time>
      </trkpt>
      <trkpt lon="11.2159891129" lat="47.2252235413">
          <ele>1311</ele>
          <time>2026-05-03T10:47:44Z</time>
      </trkpt>
      <trkpt lon="11.2161340714" lat="47.2252502441">
          <ele>1308</ele>
          <time>2026-05-03T10:47:49Z</time>
      </trkpt>
      <trkpt lon="11.2163124084" lat="47.2252349854">
          <ele>1306</ele>
          <time>2026-05-03T10:47:54Z</time>
      </trkpt>
      <trkpt lon="11.2164354324" lat="47.2251815796">
          <ele>1303</ele>
          <time>2026-05-03T10:47:57Z</time>
      </trkpt>
      <trkpt lon="11.2165727615" lat="47.2251319885">
          <ele>1300</ele>
          <time>2026-05-03T10:48:01Z</time>
      </trkpt>
      <trkpt lon="11.216709137" lat="47.2251243591">
          <ele>1296</ele>
          <time>2026-05-03T10:48:05Z</time>
      </trkpt>
      <trkpt lon="11.2168560028" lat="47.2251739502">
          <ele>1291</ele>
          <time>2026-05-03T10:48:10Z</time>
      </trkpt>
      <trkpt lon="11.2169780731" lat="47.2252388">
          <ele>1287</ele>
          <time>2026-05-03T10:48:15Z</time>
      </trkpt>
      <trkpt lon="11.2170343399" lat="47.2253227234">
          <ele>1283</ele>
          <time>2026-05-03T10:48:20Z</time>
      </trkpt>
      <trkpt lon="11.2171707153" lat="47.2253723145">
          <ele>1276</ele>
          <time>2026-05-03T10:48:28Z</time>
      </trkpt>
      <trkpt lon="11.2172794342" lat="47.225440979">
          <ele>1269</ele>
          <time>2026-05-03T10:48:34Z</time>
      </trkpt>
      <trkpt lon="11.2173376083" lat="47.2255325317">
          <ele>1265</ele>
          <time>2026-05-03T10:48:38Z</time>
      </trkpt>
      <trkpt lon="11.2173757553" lat="47.2256317139">
          <ele>1262</ele>
          <time>2026-05-03T10:48:41Z</time>
      </trkpt>
      <trkpt lon="11.2174310684" lat="47.2257232666">
          <ele>1260</ele>
          <time>2026-05-03T10:48:44Z</time>
      </trkpt>
      <trkpt lon="11.2175045013" lat="47.2258148193">
          <ele>1258</ele>
          <time>2026-05-03T10:48:47Z</time>
      </trkpt>
      <trkpt lon="11.217540741" lat="47.2259216309">
          <ele>1255</ele>
          <time>2026-05-03T10:48:51Z</time>
      </trkpt>
      <trkpt lon="11.2176151276" lat="47.2259902954">
          <ele>1249</ele>
          <time>2026-05-03T10:48:56Z</time>
      </trkpt>
      <trkpt lon="11.2176856995" lat="47.2260704041">
          <ele>1245</ele>
          <time>2026-05-03T10:49:01Z</time>
      </trkpt>
      <trkpt lon="11.2177495956" lat="47.2261543274">
          <ele>1241</ele>
          <time>2026-05-03T10:49:05Z</time>
      </trkpt>
      <trkpt lon="11.2178039551" lat="47.2262496948">
          <ele>1238</ele>
          <time>2026-05-03T10:49:10Z</time>
      </trkpt>
      <trkpt lon="11.2177438736" lat="47.226272583">
          <ele>1227</ele>
          <time>2026-05-03T10:49:40Z</time>
      </trkpt>
      <trkpt lon="11.2176332474" lat="47.2263412476">
          <ele>1224</ele>
          <time>2026-05-03T10:49:46Z</time>
      </trkpt>
      <trkpt lon="11.2175035477" lat="47.2263755798">
          <ele>1220</ele>
          <time>2026-05-03T10:49:51Z</time>
      </trkpt>
      <trkpt lon="11.2175426483" lat="47.2264633179">
          <ele>1214</ele>
          <time>2026-05-03T10:50:00Z</time>
      </trkpt>
      <trkpt lon="11.2176580429" lat="47.2265205383">
          <ele>1209</ele>
          <time>2026-05-03T10:50:06Z</time>
      </trkpt>
      <trkpt lon="11.2177619934" lat="47.2265968323">
          <ele>1208</ele>
          <time>2026-05-03T10:50:11Z</time>
      </trkpt>
      <trkpt lon="11.2178087234" lat="47.2266921997">
          <ele>1206</ele>
          <time>2026-05-03T10:50:16Z</time>
      </trkpt>
      <trkpt lon="11.2178316116" lat="47.2267913818">
          <ele>1203</ele>
          <time>2026-05-03T10:50:20Z</time>
      </trkpt>
      <trkpt lon="11.2178659439" lat="47.2268943787">
          <ele>1199</ele>
          <time>2026-05-03T10:50:24Z</time>
      </trkpt>
      <trkpt lon="11.217830658" lat="47.2269935608">
          <ele>1193</ele>
          <time>2026-05-03T10:50:32Z</time>
      </trkpt>
      <trkpt lon="11.2179193497" lat="47.2270698547">
          <ele>1190</ele>
          <time>2026-05-03T10:50:37Z</time>
      </trkpt>
      <trkpt lon="11.2179327011" lat="47.2271652222">
          <ele>1187</ele>
          <time>2026-05-03T10:50:42Z</time>
      </trkpt>
      <trkpt lon="11.2179698944" lat="47.2272605896">
          <ele>1182</ele>
          <time>2026-05-03T10:50:49Z</time>
      </trkpt>
      <trkpt lon="11.2179603577" lat="47.227355957">
          <ele>1178</ele>
          <time>2026-05-03T10:50:56Z</time>
      </trkpt>
      <trkpt lon="11.2178850174" lat="47.2274436951">
          <ele>1174</ele>
          <time>2026-05-03T10:51:02Z</time>
      </trkpt>
      <trkpt lon="11.217830658" lat="47.2275657654">
          <ele>1171</ele>
          <time>2026-05-03T10:51:07Z</time>
      </trkpt>
      <trkpt lon="11.2178783417" lat="47.2276916504">
          <ele>1170</ele>
          <time>2026-05-03T10:51:10Z</time>
      </trkpt>
      <trkpt lon="11.217965126" lat="47.2278213501">
          <ele>1169</ele>
          <time>2026-05-03T10:51:13Z</time>
      </trkpt>
      <trkpt lon="11.2181024551" lat="47.2279090881">
          <ele>1169</ele>
          <time>2026-05-03T10:51:16Z</time>
      </trkpt>
      <trkpt lon="11.2182292938" lat="47.2279777527">
          <ele>1169</ele>
          <time>2026-05-03T10:51:18Z</time>
      </trkpt>
      <trkpt lon="11.2183599472" lat="47.2280349731">
          <ele>1168</ele>
          <time>2026-05-03T10:51:20Z</time>
      </trkpt>
      <trkpt lon="11.2185058594" lat="47.2281188965">
          <ele>1167</ele>
          <time>2026-05-03T10:51:22Z</time>
      </trkpt>
      <trkpt lon="11.2185716629" lat="47.2282409668">
          <ele>1163</ele>
          <time>2026-05-03T10:51:26Z</time>
      </trkpt>
      <trkpt lon="11.2186222076" lat="47.228351593">
          <ele>1160</ele>
          <time>2026-05-03T10:51:29Z</time>
      </trkpt>
      <trkpt lon="11.2187814713" lat="47.2284126282">
          <ele>1158</ele>
          <time>2026-05-03T10:51:31Z</time>
      </trkpt>
      <trkpt lon="11.2189407349" lat="47.2284507751">
          <ele>1155</ele>
          <time>2026-05-03T10:51:33Z</time>
      </trkpt>
      <trkpt lon="11.2190694809" lat="47.2284965515">
          <ele>1151</ele>
          <time>2026-05-03T10:51:35Z</time>
      </trkpt>
      <trkpt lon="11.2191905975" lat="47.2285499573">
          <ele>1147</ele>
          <time>2026-05-03T10:51:37Z</time>
      </trkpt>
      <trkpt lon="11.219326973" lat="47.2285308838">
          <ele>1143</ele>
          <time>2026-05-03T10:51:39Z</time>
      </trkpt>
      <trkpt lon="11.2194747925" lat="47.2284736633">
          <ele>1137</ele>
          <time>2026-05-03T10:51:41Z</time>
      </trkpt>
      <trkpt lon="11.2195987701" lat="47.2284393311">
          <ele>1132</ele>
          <time>2026-05-03T10:51:44Z</time>
      </trkpt>
      <trkpt lon="11.2196149826" lat="47.2285690308">
          <ele>1127</ele>
          <time>2026-05-03T10:51:48Z</time>
      </trkpt>
      <trkpt lon="11.2195177078" lat="47.2286491394">
          <ele>1125</ele>
          <time>2026-05-03T10:51:50Z</time>
      </trkpt>
      <trkpt lon="11.2193870544" lat="47.2287216187">
          <ele>1124</ele>
          <time>2026-05-03T10:51:52Z</time>
      </trkpt>
      <trkpt lon="11.2192296982" lat="47.2287712097">
          <ele>1122</ele>
          <time>2026-05-03T10:51:54Z</time>
      </trkpt>
      <trkpt lon="11.2190361023" lat="47.2287826538">
          <ele>1121</ele>
          <time>2026-05-03T10:51:57Z</time>
      </trkpt>
      <trkpt lon="11.2188806534" lat="47.2287940979">
          <ele>1120</ele>
          <time>2026-05-03T10:52:02Z</time>
      </trkpt>
      <trkpt lon="11.2187166214" lat="47.2287635803">
          <ele>1120</ele>
          <time>2026-05-03T10:52:07Z</time>
      </trkpt>
      <trkpt lon="11.2185459137" lat="47.228729248">
          <ele>1121</ele>
          <time>2026-05-03T10:52:12Z</time>
      </trkpt>
      <trkpt lon="11.2184057236" lat="47.2286987305">
          <ele>1121</ele>
          <time>2026-05-03T10:52:16Z</time>
      </trkpt>
      <trkpt lon="11.2182254791" lat="47.2287101746">
          <ele>1122</ele>
          <time>2026-05-03T10:52:21Z</time>
      </trkpt>
      <trkpt lon="11.2180776596" lat="47.2287521362">
          <ele>1122</ele>
          <time>2026-05-03T10:52:25Z</time>
      </trkpt>
      <trkpt lon="11.2179164886" lat="47.2287979126">
          <ele>1122</ele>
          <time>2026-05-03T10:54:28Z</time>
      </trkpt>
   </trkseg>
</trk>
</gpx>
